Darstellungsparameter: Aktuell verwendete Einstellungen:
Skalierung der Graphiken ... ?
xyx+y,   Skalierungsfaktor:      Skalierung: Modus: x, Faktor: 1
Darstellungszeitraum ... ?
Vom - - bis: - -   Zeitraum: 28.08.2017 - 03.09.2017
Min/Max/Avg-Anzeige ... ?
Zeige MMA aktuell
Zeige MMA Monat
Zeige MMA alles
Zeige --A aktuell
Zeige --A Monat
Zeige --A alles
Keine MMA-Anzeige
MMA:
Keine MMA-Graphiken
MMA-Basis: 28.08.2017 - 03.09.2017
Quicknavigation für Darstellung... ?
Tage:      1T, 2T, 3T, 5T -1T -2T -3T -5T +1T +2T +3T +5T
Wochen: 1W, 2W, 3W -1W -2W -3W +1W +2W +3W
Monate: 1M, 3M, 6M -1M -3M -6M +1M +3M +6M
Jahre:    1J, 3J, 5J, 10J -1J -3J -5J -10J +1J +3J +5J +10J
Nutze für die Darstellung ... ?
Originaldaten oder Mittelwerte auf ...
Stundenbasis Tagesbasis Wochenbasis
Monatsbasis Jahresbasis      Datenbasis: Original-Daten
Darstellen als:
Statistik (Auto) Statistik J:M      Darstellung:
Zur Graphik,    zurück zur Übersicht aller Sensoren.
 
Tabellarische Datenbersicht: ?
 
Sensor: Nr:Datum:Temp:Feuchte:Taupunkt:
Aussen-T/F 1 28-08-2017 00:00:00 17.8 C 92 % 16.48 C
2 28-08-2017 00:05:00 17.8 C 92 % 16.48 C
3 28-08-2017 00:10:00 17.8 C 92 % 16.48 C
4 28-08-2017 00:15:00 17.7 C 92 % 16.38 C
5 28-08-2017 00:20:00 17.7 C 92 % 16.38 C
6 28-08-2017 00:25:00 17.6 C 92 % 16.28 C
7 28-08-2017 00:30:00 17.5 C 92 % 16.19 C
8 28-08-2017 00:35:00 17.4 C 92 % 16.09 C
9 28-08-2017 00:40:00 17.3 C 92 % 15.99 C
10 28-08-2017 00:45:00 17.3 C 92 % 15.99 C
11 28-08-2017 00:50:00 17.2 C 92 % 15.89 C
12 28-08-2017 00:55:00 17.1 C 92 % 15.79 C
13 28-08-2017 01:00:00 17.1 C 93 % 15.96 C
14 28-08-2017 01:05:00 17 C 93 % 15.86 C
15 28-08-2017 01:10:00 16.9 C 93 % 15.76 C
16 28-08-2017 01:15:00 16.9 C 93 % 15.76 C
17 28-08-2017 01:20:00 16.8 C 93 % 15.66 C
18 28-08-2017 01:25:00 16.7 C 93 % 15.56 C
19 28-08-2017 01:30:00 16.7 C 94 % 15.73 C
20 28-08-2017 01:35:00 16.7 C 94 % 15.73 C
21 28-08-2017 01:40:00 16.6 C 93 % 15.46 C
22 28-08-2017 01:45:00 16.4 C 93 % 15.27 C
23 28-08-2017 01:50:00 16.4 C 94 % 15.43 C
24 28-08-2017 01:55:00 16.3 C 94 % 15.33 C
25 28-08-2017 02:00:00 16.2 C 94 % 15.23 C
Sensor: Nr:Datum:Temp:Feuchte:Taupunkt:
Aussen-T/F 26 28-08-2017 02:05:00 16.2 C 94 % 15.23 C
27 28-08-2017 02:10:00 16.1 C 94 % 15.13 C
28 28-08-2017 02:15:00 16 C 94 % 15.03 C
29 28-08-2017 02:20:00 15.9 C 94 % 14.94 C
30 28-08-2017 02:25:00 15.9 C 94 % 14.94 C
31 28-08-2017 02:30:00 15.9 C 94 % 14.94 C
32 28-08-2017 02:35:00 15.9 C 94 % 14.94 C
33 28-08-2017 02:40:00 15.9 C 95 % 15.1 C
34 28-08-2017 02:45:00 16 C 95 % 15.2 C
35 28-08-2017 02:50:00 16.1 C 95 % 15.3 C
36 28-08-2017 02:55:00 16.1 C 95 % 15.3 C
37 28-08-2017 03:00:00 16.2 C 95 % 15.4 C
38 28-08-2017 03:05:00 16.2 C 95 % 15.4 C
39 28-08-2017 03:10:00 16.2 C 95 % 15.4 C
40 28-08-2017 03:15:00 16.2 C 95 % 15.4 C
41 28-08-2017 03:20:00 16.1 C 95 % 15.3 C
42 28-08-2017 03:25:00 16.1 C 95 % 15.3 C
43 28-08-2017 03:30:00 15.9 C 94 % 14.94 C
44 28-08-2017 03:35:00 15.9 C 94 % 14.94 C
45 28-08-2017 03:40:00 15.8 C 94 % 14.84 C
46 28-08-2017 03:45:00 15.7 C 94 % 14.74 C
47 28-08-2017 03:50:00 15.7 C 94 % 14.74 C
48 28-08-2017 03:55:00 15.6 C 94 % 14.64 C
49 28-08-2017 04:00:00 15.6 C 94 % 14.64 C
50 28-08-2017 04:05:00 15.6 C 94 % 14.64 C
Sensor: Nr:Datum:Temp:Feuchte:Taupunkt:
Aussen-T/F 51 28-08-2017 04:10:00 15.6 C 94 % 14.64 C
52 28-08-2017 04:15:00 15.6 C 94 % 14.64 C
53 28-08-2017 04:20:00 15.6 C 94 % 14.64 C
54 28-08-2017 04:25:00 15.6 C 94 % 14.64 C
55 28-08-2017 04:30:00 15.6 C 94 % 14.64 C
56 28-08-2017 04:35:00 15.4 C 93 % 14.27 C
57 28-08-2017 04:40:00 15.4 C 93 % 14.27 C
58 28-08-2017 04:45:00 15.3 C 93 % 14.18 C
59 28-08-2017 04:50:00 15.3 C 93 % 14.18 C
60 28-08-2017 04:55:00 15.2 C 92 % 13.91 C
61 28-08-2017 05:00:00 15.2 C 93 % 14.08 C
62 28-08-2017 05:05:00 15.2 C 93 % 14.08 C
63 28-08-2017 05:10:00 15.2 C 93 % 14.08 C
64 28-08-2017 05:15:00 15.2 C 93 % 14.08 C
65 28-08-2017 05:20:00 15.2 C 93 % 14.08 C
66 28-08-2017 05:25:00 15.3 C 93 % 14.18 C
67 28-08-2017 05:30:00 15.3 C 93 % 14.18 C
68 28-08-2017 05:35:00 15.3 C 93 % 14.18 C
69 28-08-2017 05:40:00 15.3 C 93 % 14.18 C
70 28-08-2017 05:45:00 15.2 C 93 % 14.08 C
71 28-08-2017 05:50:00 15.2 C 93 % 14.08 C
72 28-08-2017 05:55:00 15.2 C 93 % 14.08 C
73 28-08-2017 06:00:00 15.2 C 93 % 14.08 C
74 28-08-2017 06:05:00 15.1 C 93 % 13.98 C
75 28-08-2017 06:10:00 15 C 93 % 13.88 C
Sensor: Nr:Datum:Temp:Feuchte:Taupunkt:
Aussen-T/F 76 28-08-2017 06:15:00 14.9 C 93 % 13.78 C
77 28-08-2017 06:20:00 14.9 C 93 % 13.78 C
78 28-08-2017 06:25:00 14.8 C 93 % 13.68 C
79 28-08-2017 06:30:00 14.8 C 93 % 13.68 C
80 28-08-2017 06:35:00 14.8 C 93 % 13.68 C
81 28-08-2017 06:40:00 14.8 C 93 % 13.68 C
82 28-08-2017 06:45:00 14.7 C 93 % 13.58 C
83 28-08-2017 06:50:00 14.7 C 93 % 13.58 C
84 28-08-2017 06:55:00 14.7 C 93 % 13.58 C
85 28-08-2017 07:00:00 14.7 C 94 % 13.74 C
86 28-08-2017 07:05:00 14.7 C 94 % 13.74 C
87 28-08-2017 07:10:00 14.7 C 94 % 13.74 C
88 28-08-2017 07:15:00 14.7 C 94 % 13.74 C
89 28-08-2017 07:20:00 14.8 C 94 % 13.84 C
90 28-08-2017 07:25:00 14.8 C 94 % 13.84 C
91 28-08-2017 07:30:00 14.8 C 94 % 13.84 C
92 28-08-2017 07:35:00 14.9 C 94 % 13.94 C
93 28-08-2017 07:40:00 15.1 C 94 % 14.14 C
94 28-08-2017 07:45:00 15.1 C 94 % 14.14 C
95 28-08-2017 07:50:00 15.2 C 94 % 14.24 C
96 28-08-2017 07:55:00 15.2 C 94 % 14.24 C
97 28-08-2017 08:00:00 15.3 C 95 % 14.5 C
98 28-08-2017 08:05:00 15.3 C 95 % 14.5 C
99 28-08-2017 08:10:00 15.4 C 95 % 14.6 C
100 28-08-2017 08:15:00 15.4 C 95 % 14.6 C
Sensor: Nr:Datum:Temp:Feuchte:Taupunkt:
Aussen-T/F 101 28-08-2017 08:20:00 15.5 C 95 % 14.7 C
102 28-08-2017 08:25:00 15.6 C 95 % 14.8 C
103 28-08-2017 08:30:00 15.7 C 95 % 14.9 C
104 28-08-2017 08:35:00 15.8 C 95 % 15 C
105 28-08-2017 08:40:00 15.9 C 95 % 15.1 C
106 28-08-2017 08:45:00 16.1 C 95 % 15.3 C
107 28-08-2017 08:50:00 16.1 C 95 % 15.3 C
108 28-08-2017 08:55:00 16.1 C 95 % 15.3 C
109 28-08-2017 09:00:00 16.2 C 95 % 15.4 C
110 28-08-2017 09:05:00 16.2 C 95 % 15.4 C
111 28-08-2017 09:10:00 16.3 C 95 % 15.5 C
112 28-08-2017 09:15:00 16.3 C 95 % 15.5 C
113 28-08-2017 09:20:00 16.4 C 95 % 15.6 C
114 28-08-2017 09:25:00 16.4 C 95 % 15.6 C
115 28-08-2017 09:30:00 16.5 C 95 % 15.7 C
116 28-08-2017 09:35:00 16.6 C 95 % 15.8 C
117 28-08-2017 09:40:00 16.6 C 94 % 15.63 C
118 28-08-2017 09:45:00 16.7 C 94 % 15.73 C
119 28-08-2017 09:50:00 16.7 C 95 % 15.9 C
120 28-08-2017 09:55:00 16.8 C 95 % 15.99 C
121 28-08-2017 10:00:00 16.9 C 95 % 16.09 C
122 28-08-2017 10:05:00 16.9 C 94 % 15.93 C
123 28-08-2017 10:10:00 17 C 94 % 16.03 C
124 28-08-2017 10:15:00 17.1 C 94 % 16.13 C
125 28-08-2017 10:20:00 17.1 C 94 % 16.13 C
Sensor: Nr:Datum:Temp:Feuchte:Taupunkt:
Aussen-T/F 126 28-08-2017 10:25:00 17.2 C 94 % 16.23 C
127 28-08-2017 10:30:00 17.2 C 94 % 16.23 C
128 28-08-2017 10:35:00 17.3 C 94 % 16.33 C
129 28-08-2017 10:40:00 17.3 C 94 % 16.33 C
130 28-08-2017 10:45:00 17.4 C 94 % 16.42 C
131 28-08-2017 10:50:00 17.4 C 93 % 16.26 C
132 28-08-2017 10:55:00 17.6 C 93 % 16.45 C
133 28-08-2017 11:00:00 17.7 C 93 % 16.55 C
134 28-08-2017 11:05:00 17.8 C 92 % 16.48 C
135 28-08-2017 11:10:00 17.9 C 92 % 16.58 C
136 28-08-2017 11:15:00 18.1 C 92 % 16.78 C
137 28-08-2017 11:20:00 18.2 C 91 % 16.71 C
138 28-08-2017 11:25:00 18.3 C 91 % 16.81 C
139 28-08-2017 11:30:00 18.5 C 91 % 17 C
140 28-08-2017 11:35:00 18.6 C 91 % 17.1 C
141 28-08-2017 11:40:00 18.8 C 91 % 17.3 C
142 28-08-2017 11:45:00 18.8 C 90 % 17.12 C
143 28-08-2017 11:50:00 19 C 90 % 17.32 C
144 28-08-2017 11:55:00 19.2 C 90 % 17.52 C
145 28-08-2017 12:00:00 19.3 C 90 % 17.62 C
146 28-08-2017 12:05:00 19.4 C 89 % 17.54 C
147 28-08-2017 12:10:00 19.7 C 89 % 17.84 C
148 28-08-2017 12:15:00 19.8 C 88 % 17.75 C
149 28-08-2017 12:20:00 20.1 C 88 % 18.05 C
150 28-08-2017 12:25:00 20.3 C 87 % 18.06 C
Sensor: Nr:Datum:Temp:Feuchte:Taupunkt:
Aussen-T/F 151 28-08-2017 12:30:00 20.5 C 84 % 17.7 C
152 28-08-2017 12:35:00 20.7 C 84 % 17.9 C
153 28-08-2017 12:40:00 20.9 C 86 % 18.47 C
154 28-08-2017 12:45:00 21 C 85 % 18.38 C
155 28-08-2017 12:50:00 21.2 C 84 % 18.39 C
156 28-08-2017 12:55:00 21.3 C 81 % 17.91 C
157 28-08-2017 13:00:00 21.5 C 81 % 18.1 C
158 28-08-2017 13:05:00 21.7 C 83 % 18.69 C
159 28-08-2017 13:10:00 21.9 C 77 % 17.68 C
160 28-08-2017 13:15:00 22.2 C 76 % 17.77 C
161 28-08-2017 13:20:00 22.5 C 76 % 18.06 C
162 28-08-2017 13:25:00 22.8 C 73 % 17.71 C
163 28-08-2017 13:30:00 23.1 C 72 % 17.78 C
164 28-08-2017 13:35:00 23.2 C 79 % 19.35 C
165 28-08-2017 13:40:00 23.1 C 73 % 17.99 C
166 28-08-2017 13:45:00 23.1 C 71 % 17.55 C
167 28-08-2017 13:50:00 23.3 C 72 % 17.97 C
168 28-08-2017 13:55:00 23.4 C 72 % 18.06 C
169 28-08-2017 14:00:00 23.6 C 71 % 18.03 C
170 28-08-2017 14:05:00 23.7 C 72 % 18.35 C
171 28-08-2017 14:10:00 23.8 C 70 % 18 C
172 28-08-2017 14:15:00 23.9 C 71 % 18.32 C
173 28-08-2017 14:20:00 24 C 69 % 17.96 C
174 28-08-2017 14:25:00 24.2 C 69 % 18.15 C
175 28-08-2017 14:30:00 24.2 C 69 % 18.15 C
Sensor: Nr:Datum:Temp:Feuchte:Taupunkt:
Aussen-T/F 176 28-08-2017 14:35:00 24.3 C 69 % 18.25 C
177 28-08-2017 14:40:00 24.4 C 69 % 18.34 C
178 28-08-2017 14:45:00 24.4 C 68 % 18.11 C
179 28-08-2017 14:50:00 24.4 C 70 % 18.57 C
180 28-08-2017 14:55:00 24.4 C 70 % 18.57 C
181 28-08-2017 15:00:00 24.4 C 70 % 18.57 C
182 28-08-2017 15:05:00 24.4 C 70 % 18.57 C
183 28-08-2017 15:10:00 24.5 C 69 % 18.44 C
184 28-08-2017 15:15:00 24.5 C 70 % 18.67 C
185 28-08-2017 15:20:00 24.6 C 68 % 18.3 C
186 28-08-2017 15:25:00 24.7 C 69 % 18.63 C
187 28-08-2017 15:30:00 24.8 C 69 % 18.72 C
188 28-08-2017 15:35:00 24.9 C 68 % 18.59 C
189 28-08-2017 15:40:00 25.1 C 67 % 18.54 C
190 28-08-2017 15:45:00 25.1 C 68 % 18.78 C
191 28-08-2017 15:50:00 25.3 C 65 % 18.25 C
192 28-08-2017 15:55:00 25.4 C 64 % 18.09 C
193 28-08-2017 16:00:00 25.6 C 62 % 17.78 C
194 28-08-2017 16:05:00 25.7 C 64 % 18.38 C
195 28-08-2017 16:10:00 25.7 C 73 % 20.49 C
196 28-08-2017 16:15:00 25.8 C 65 % 18.72 C
197 28-08-2017 16:20:00 25.8 C 65 % 18.72 C
198 28-08-2017 16:25:00 25.9 C 73 % 20.69 C
199 28-08-2017 16:30:00 26.1 C 70 % 20.2 C
200 28-08-2017 16:35:00 26.3 C 70 % 20.39 C
Sensor: Nr:Datum:Temp:Feuchte:Taupunkt:
Aussen-T/F 201 28-08-2017 16:40:00 26.6 C 65 % 19.48 C
202 28-08-2017 16:45:00 26.8 C 63 % 19.16 C
203 28-08-2017 16:50:00 27.2 C 60 % 18.76 C
204 28-08-2017 16:55:00 27.3 C 61 % 19.12 C
205 28-08-2017 17:00:00 27.5 C 60 % 19.04 C
206 28-08-2017 17:05:00 27.4 C 66 % 20.48 C
207 28-08-2017 17:10:00 27.5 C 69 % 21.3 C
208 28-08-2017 17:15:00 27.6 C 62 % 19.66 C
209 28-08-2017 17:20:00 27.8 C 70 % 21.82 C
210 28-08-2017 17:25:00 27.9 C 69 % 21.68 C
211 28-08-2017 17:30:00 28.1 C 68 % 21.63 C
212 28-08-2017 17:35:00 28.1 C 68 % 21.63 C
213 28-08-2017 17:40:00 28.1 C 69 % 21.87 C
214 28-08-2017 17:45:00 28 C 69 % 21.78 C
215 28-08-2017 17:50:00 27.9 C 65 % 20.71 C
216 28-08-2017 17:55:00 27.8 C 67 % 21.11 C
217 28-08-2017 18:00:00 27.8 C 70 % 21.82 C
218 28-08-2017 18:05:00 27.7 C 70 % 21.73 C
219 28-08-2017 18:10:00 27.7 C 70 % 21.73 C
220 28-08-2017 18:15:00 27.5 C 69 % 21.3 C
221 28-08-2017 18:20:00 27.2 C 70 % 21.25 C
222 28-08-2017 18:25:00 26.8 C 70 % 20.87 C
223 28-08-2017 18:30:00 26.4 C 71 % 20.71 C
224 28-08-2017 18:35:00 26.1 C 72 % 20.65 C
225 28-08-2017 18:40:00 25.9 C 72 % 20.46 C
Sensor: Nr:Datum:Temp:Feuchte:Taupunkt:
Aussen-T/F 226 28-08-2017 18:45:00 25.7 C 72 % 20.27 C
227 28-08-2017 18:50:00 25.4 C 73 % 20.21 C
228 28-08-2017 18:55:00 25.1 C 73 % 19.92 C
229 28-08-2017 19:00:00 24.6 C 74 % 19.66 C
230 28-08-2017 19:05:00 24.2 C 75 % 19.49 C
231 28-08-2017 19:10:00 23.9 C 77 % 19.62 C
232 28-08-2017 19:15:00 23.7 C 77 % 19.43 C
233 28-08-2017 19:20:00 23.3 C 78 % 19.25 C
234 28-08-2017 19:25:00 23 C 79 % 19.16 C
235 28-08-2017 19:30:00 22.7 C 80 % 19.07 C
236 28-08-2017 19:35:00 22.5 C 81 % 19.08 C
237 28-08-2017 19:40:00 22.3 C 82 % 19.08 C
238 28-08-2017 19:45:00 22.1 C 82 % 18.88 C
239 28-08-2017 19:50:00 21.9 C 83 % 18.88 C
240 28-08-2017 19:55:00 21.7 C 83 % 18.69 C
241 28-08-2017 20:00:00 21.6 C 84 % 18.78 C
242 28-08-2017 20:05:00 21.4 C 84 % 18.58 C
243 28-08-2017 20:10:00 21.3 C 84 % 18.49 C
244 28-08-2017 20:15:00 21.2 C 84 % 18.39 C
245 28-08-2017 20:20:00 21.1 C 85 % 18.48 C
246 28-08-2017 20:25:00 20.9 C 85 % 18.28 C
247 28-08-2017 20:30:00 20.8 C 85 % 18.18 C
248 28-08-2017 20:35:00 20.7 C 85 % 18.09 C
249 28-08-2017 20:40:00 20.6 C 86 % 18.18 C
250 28-08-2017 20:45:00 20.4 C 86 % 17.98 C
Sensor: Nr:Datum:Temp:Feuchte:Taupunkt:
Aussen-T/F 251 28-08-2017 20:50:00 20.3 C 86 % 17.88 C
252 28-08-2017 20:55:00 20.3 C 86 % 17.88 C
253 28-08-2017 21:00:00 20.2 C 86 % 17.78 C
254 28-08-2017 21:05:00 20.1 C 87 % 17.87 C
255 28-08-2017 21:10:00 20.1 C 87 % 17.87 C
256 28-08-2017 21:15:00 20 C 87 % 17.77 C
257 28-08-2017 21:20:00 19.9 C 87 % 17.67 C
258 28-08-2017 21:25:00 19.8 C 87 % 17.57 C
259 28-08-2017 21:30:00 19.8 C 87 % 17.57 C
260 28-08-2017 21:35:00 19.7 C 88 % 17.66 C
261 28-08-2017 21:40:00 19.7 C 88 % 17.66 C
262 28-08-2017 21:45:00 19.6 C 88 % 17.56 C
263 28-08-2017 21:50:00 19.5 C 88 % 17.46 C
264 28-08-2017 21:55:00 19.4 C 89 % 17.54 C
265 28-08-2017 22:00:00 19.3 C 89 % 17.44 C
266 28-08-2017 22:05:00 19.2 C 89 % 17.34 C
267 28-08-2017 22:10:00 19.1 C 89 % 17.24 C
268 28-08-2017 22:15:00 19.1 C 89 % 17.24 C
269 28-08-2017 22:20:00 19 C 90 % 17.32 C
270 28-08-2017 22:25:00 18.9 C 90 % 17.22 C
271 28-08-2017 22:30:00 18.8 C 90 % 17.12 C
272 28-08-2017 22:35:00 18.8 C 90 % 17.12 C
273 28-08-2017 22:40:00 18.7 C 90 % 17.03 C
274 28-08-2017 22:45:00 18.6 C 91 % 17.1 C
275 28-08-2017 22:50:00 18.6 C 91 % 17.1 C
Sensor: Nr:Datum:Temp:Feuchte:Taupunkt:
Aussen-T/F 276 28-08-2017 22:55:00 18.6 C 91 % 17.1 C
277 28-08-2017 23:00:00 18.5 C 91 % 17 C
278 28-08-2017 23:05:00 18.4 C 91 % 16.9 C
279 28-08-2017 23:10:00 18.4 C 91 % 16.9 C
280 28-08-2017 23:15:00 18.3 C 91 % 16.81 C
281 28-08-2017 23:20:00 18.3 C 92 % 16.98 C
282 28-08-2017 23:25:00 18.2 C 91 % 16.71 C
283 28-08-2017 23:30:00 18.1 C 91 % 16.61 C
284 28-08-2017 23:35:00 18.1 C 92 % 16.78 C
285 28-08-2017 23:40:00 18 C 92 % 16.68 C
286 28-08-2017 23:45:00 18 C 92 % 16.68 C
287 28-08-2017 23:50:00 17.9 C 92 % 16.58 C
288 28-08-2017 23:55:00 17.9 C 92 % 16.58 C
289 29-08-2017 00:00:00 17.8 C 92 % 16.48 C
290 29-08-2017 00:05:00 17.8 C 92 % 16.48 C
291 29-08-2017 00:10:00 17.7 C 92 % 16.38 C
292 29-08-2017 00:15:00 17.6 C 92 % 16.28 C
293 29-08-2017 00:20:00 17.6 C 93 % 16.45 C
294 29-08-2017 00:25:00 17.5 C 93 % 16.36 C
295 29-08-2017 00:30:00 17.4 C 93 % 16.26 C
296 29-08-2017 00:35:00 17.4 C 93 % 16.26 C
297 29-08-2017 00:40:00 17.3 C 93 % 16.16 C
298 29-08-2017 00:45:00 17.3 C 93 % 16.16 C
299 29-08-2017 00:50:00 17.3 C 93 % 16.16 C
300 29-08-2017 00:55:00 17.2 C 93 % 16.06 C
Sensor: Nr:Datum:Temp:Feuchte:Taupunkt:
Aussen-T/F 301 29-08-2017 01:00:00 17.1 C 94 % 16.13 C
302 29-08-2017 01:05:00 17.1 C 94 % 16.13 C
303 29-08-2017 01:10:00 17.1 C 94 % 16.13 C
304 29-08-2017 01:15:00 17.1 C 94 % 16.13 C
305 29-08-2017 01:20:00 17 C 94 % 16.03 C
306 29-08-2017 01:25:00 17 C 94 % 16.03 C
307 29-08-2017 01:30:00 16.9 C 94 % 15.93 C
308 29-08-2017 01:35:00 16.9 C 94 % 15.93 C
309 29-08-2017 01:40:00 16.9 C 94 % 15.93 C
310 29-08-2017 01:45:00 16.8 C 94 % 15.83 C
311 29-08-2017 01:50:00 16.7 C 94 % 15.73 C
312 29-08-2017 01:55:00 16.7 C 94 % 15.73 C
313 29-08-2017 02:00:00 16.7 C 95 % 15.9 C
314 29-08-2017 02:05:00 16.7 C 94 % 15.73 C
315 29-08-2017 02:10:00 16.7 C 94 % 15.73 C
316 29-08-2017 02:15:00 16.6 C 94 % 15.63 C
317 29-08-2017 02:20:00 16.6 C 94 % 15.63 C
318 29-08-2017 02:25:00 16.5 C 95 % 15.7 C
319 29-08-2017 02:30:00 16.4 C 95 % 15.6 C
320 29-08-2017 02:35:00 16.4 C 95 % 15.6 C
321 29-08-2017 02:40:00 16.3 C 94 % 15.33 C
322 29-08-2017 02:45:00 16.3 C 94 % 15.33 C
323 29-08-2017 02:50:00 16.2 C 95 % 15.4 C
324 29-08-2017 02:55:00 16.2 C 95 % 15.4 C
325 29-08-2017 03:00:00 16.1 C 95 % 15.3 C
Sensor: Nr:Datum:Temp:Feuchte:Taupunkt:
Aussen-T/F 326 29-08-2017 03:05:00 16.1 C 95 % 15.3 C
327 29-08-2017 03:10:00 16.1 C 95 % 15.3 C
328 29-08-2017 03:15:00 16 C 95 % 15.2 C
329 29-08-2017 03:20:00 16 C 95 % 15.2 C
330 29-08-2017 03:25:00 15.9 C 95 % 15.1 C
331 29-08-2017 03:30:00 15.9 C 95 % 15.1 C
332 29-08-2017 03:35:00 15.9 C 95 % 15.1 C
333 29-08-2017 03:40:00 15.9 C 95 % 15.1 C
334 29-08-2017 03:45:00 15.9 C 95 % 15.1 C
335 29-08-2017 03:50:00 15.8 C 95 % 15 C
336 29-08-2017 03:55:00 15.8 C 95 % 15 C
337 29-08-2017 04:00:00 15.8 C 95 % 15 C
338 29-08-2017 04:05:00 15.8 C 95 % 15 C
339 29-08-2017 04:10:00 15.7 C 95 % 14.9 C
340 29-08-2017 04:15:00 15.7 C 95 % 14.9 C
341 29-08-2017 04:20:00 15.7 C 95 % 14.9 C
342 29-08-2017 04:25:00 15.6 C 95 % 14.8 C
343 29-08-2017 04:30:00 15.5 C 95 % 14.7 C
344 29-08-2017 04:35:00 15.5 C 95 % 14.7 C
345 29-08-2017 04:40:00 15.5 C 96 % 14.86 C
346 29-08-2017 04:45:00 15.4 C 96 % 14.77 C
347 29-08-2017 04:50:00 15.4 C 96 % 14.77 C
348 29-08-2017 04:55:00 15.4 C 96 % 14.77 C
349 29-08-2017 05:00:00 15.4 C 96 % 14.77 C
350 29-08-2017 05:05:00 15.3 C 95 % 14.5 C
Sensor: Nr:Datum:Temp:Feuchte:Taupunkt:
Aussen-T/F 351 29-08-2017 05:10:00 15.3 C 95 % 14.5 C
352 29-08-2017 05:15:00 15.3 C 95 % 14.5 C
353 29-08-2017 05:20:00 15.2 C 95 % 14.4 C
354 29-08-2017 05:25:00 15.2 C 96 % 14.57 C
355 29-08-2017 05:30:00 15.2 C 96 % 14.57 C
356 29-08-2017 05:35:00 15.2 C 96 % 14.57 C
357 29-08-2017 05:40:00 15.2 C 96 % 14.57 C
358 29-08-2017 05:45:00 15.1 C 96 % 14.47 C
359 29-08-2017 05:50:00 15 C 95 % 14.21 C
360 29-08-2017 05:55:00 14.9 C 96 % 14.27 C
361 29-08-2017 06:00:00 14.9 C 96 % 14.27 C
362 29-08-2017 06:05:00 14.9 C 96 % 14.27 C
363 29-08-2017 06:10:00 14.9 C 96 % 14.27 C
364 29-08-2017 06:15:00 14.8 C 96 % 14.17 C
365 29-08-2017 06:20:00 14.9 C 96 % 14.27 C
366 29-08-2017 06:25:00 14.9 C 96 % 14.27 C
367 29-08-2017 06:30:00 14.8 C 96 % 14.17 C
368 29-08-2017 06:35:00 14.8 C 96 % 14.17 C
369 29-08-2017 06:40:00 14.8 C 96 % 14.17 C
370 29-08-2017 06:45:00 14.8 C 96 % 14.17 C
371 29-08-2017 06:50:00 14.8 C 96 % 14.17 C
372 29-08-2017 06:55:00 14.8 C 96 % 14.17 C
373 29-08-2017 07:00:00 14.8 C 96 % 14.17 C
374 29-08-2017 07:05:00 14.8 C 96 % 14.17 C
375 29-08-2017 07:10:00 14.7 C 96 % 14.07 C
Sensor: Nr:Datum:Temp:Feuchte:Taupunkt:
Aussen-T/F 376 29-08-2017 07:15:00 14.7 C 96 % 14.07 C
377 29-08-2017 07:20:00 14.7 C 96 % 14.07 C
378 29-08-2017 07:25:00 14.6 C 96 % 13.97 C
379 29-08-2017 07:30:00 14.7 C 96 % 14.07 C
380 29-08-2017 07:35:00 14.7 C 96 % 14.07 C
381 29-08-2017 07:40:00 14.7 C 96 % 14.07 C
382 29-08-2017 07:45:00 14.8 C 96 % 14.17 C
383 29-08-2017 07:50:00 14.9 C 97 % 14.43 C
384 29-08-2017 07:55:00 14.9 C 97 % 14.43 C
385 29-08-2017 08:00:00 15.1 C 97 % 14.63 C
386 29-08-2017 08:05:00 15.1 C 97 % 14.63 C
387 29-08-2017 08:10:00 15.3 C 97 % 14.83 C
388 29-08-2017 08:15:00 15.4 C 97 % 14.93 C
389 29-08-2017 08:20:00 15.5 C 97 % 15.03 C
390 29-08-2017 08:25:00 15.6 C 97 % 15.13 C
391 29-08-2017 08:30:00 15.6 C 97 % 15.13 C
392 29-08-2017 08:35:00 15.6 C 97 % 15.13 C
393 29-08-2017 08:40:00 15.6 C 97 % 15.13 C
394 29-08-2017 08:45:00 15.6 C 97 % 15.13 C
395 29-08-2017 08:50:00 15.6 C 97 % 15.13 C
396 29-08-2017 08:55:00 15.6 C 97 % 15.13 C
397 29-08-2017 09:00:00 15.6 C 97 % 15.13 C
398 29-08-2017 09:05:00 15.7 C 97 % 15.23 C
399 29-08-2017 09:10:00 15.7 C 97 % 15.23 C
400 29-08-2017 09:15:00 15.8 C 97 % 15.32 C
Sensor: Nr:Datum:Temp:Feuchte:Taupunkt:
Aussen-T/F 401 29-08-2017 09:20:00 15.8 C 97 % 15.32 C
402 29-08-2017 09:25:00 15.9 C 97 % 15.42 C
403 29-08-2017 09:30:00 16 C 97 % 15.52 C
404 29-08-2017 09:35:00 16.1 C 97 % 15.62 C
405 29-08-2017 09:40:00 16.2 C 97 % 15.72 C
406 29-08-2017 09:45:00 16.3 C 97 % 15.82 C
407 29-08-2017 09:50:00 16.4 C 97 % 15.92 C
408 29-08-2017 09:55:00 16.5 C 97 % 16.02 C
409 29-08-2017 10:00:00 16.7 C 97 % 16.22 C
410 29-08-2017 10:05:00 16.8 C 97 % 16.32 C
411 29-08-2017 10:10:00 16.9 C 97 % 16.42 C
412 29-08-2017 10:15:00 17 C 97 % 16.52 C
413 29-08-2017 10:20:00 17.2 C 97 % 16.72 C
414 29-08-2017 10:25:00 17.3 C 97 % 16.82 C
415 29-08-2017 10:30:00 17.4 C 97 % 16.92 C
416 29-08-2017 10:35:00 17.6 C 97 % 17.12 C
417 29-08-2017 10:40:00 17.7 C 97 % 17.22 C
418 29-08-2017 10:45:00 17.9 C 97 % 17.42 C
419 29-08-2017 10:50:00 18.1 C 97 % 17.62 C
420 29-08-2017 10:55:00 18.2 C 97 % 17.72 C
421 29-08-2017 11:00:00 18.3 C 97 % 17.82 C
422 29-08-2017 11:05:00 18.4 C 97 % 17.91 C
423 29-08-2017 11:10:00 18.5 C 97 % 18.01 C
424 29-08-2017 11:15:00 18.6 C 97 % 18.11 C
425 29-08-2017 11:20:00 18.7 C 97 % 18.21 C
Sensor: Nr:Datum:Temp:Feuchte:Taupunkt:
Aussen-T/F 426 29-08-2017 11:25:00 18.9 C 97 % 18.41 C
427 29-08-2017 11:30:00 19.1 C 97 % 18.61 C
428 29-08-2017 11:35:00 19.2 C 97 % 18.71 C
429 29-08-2017 11:40:00 19.3 C 96 % 18.65 C
430 29-08-2017 11:45:00 19.5 C 96 % 18.84 C
431 29-08-2017 11:50:00 19.7 C 96 % 19.04 C
432 29-08-2017 11:55:00 19.9 C 96 % 19.24 C
433 29-08-2017 12:00:00 20.1 C 96 % 19.44 C
434 29-08-2017 12:05:00 20.3 C 96 % 19.64 C
435 29-08-2017 12:10:00 20.4 C 95 % 19.57 C
436 29-08-2017 12:15:00 20.6 C 95 % 19.77 C
437 29-08-2017 12:20:00 20.8 C 94 % 19.8 C
438 29-08-2017 12:25:00 21 C 94 % 20 C
439 29-08-2017 12:30:00 21.3 C 94 % 20.29 C
440 29-08-2017 12:35:00 21.5 C 92 % 20.14 C
441 29-08-2017 12:40:00 21.7 C 92 % 20.34 C
442 29-08-2017 12:45:00 21.8 C 91 % 20.26 C
443 29-08-2017 12:50:00 22.1 C 89 % 20.2 C
444 29-08-2017 12:55:00 22.3 C 89 % 20.4 C
445 29-08-2017 13:00:00 22.5 C 87 % 20.23 C
446 29-08-2017 13:05:00 22.6 C 84 % 19.76 C
447 29-08-2017 13:10:00 22.9 C 87 % 20.62 C
448 29-08-2017 13:15:00 23.1 C 88 % 21 C
449 29-08-2017 13:20:00 23.1 C 78 % 19.05 C
450 29-08-2017 13:25:00 23.6 C 79 % 19.74 C
Sensor: Nr:Datum:Temp:Feuchte:Taupunkt:
Aussen-T/F 451 29-08-2017 13:30:00 23.9 C 80 % 20.24 C
452 29-08-2017 13:35:00 24.1 C 82 % 20.83 C
453 29-08-2017 13:40:00 24.2 C 83 % 21.13 C
454 29-08-2017 13:45:00 24 C 76 % 19.51 C
455 29-08-2017 13:50:00 24.1 C 80 % 20.43 C
456 29-08-2017 13:55:00 24.1 C 78 % 20.02 C
457 29-08-2017 14:00:00 24.2 C 79 % 20.32 C
458 29-08-2017 14:05:00 24.3 C 80 % 20.63 C
459 29-08-2017 14:10:00 24.4 C 77 % 20.1 C
460 29-08-2017 14:15:00 24.6 C 77 % 20.3 C
461 29-08-2017 14:20:00 24.7 C 76 % 20.18 C
462 29-08-2017 14:25:00 24.8 C 73 % 19.63 C
463 29-08-2017 14:30:00 25.1 C 72 % 19.69 C
464 29-08-2017 14:35:00 25.3 C 68 % 18.97 C
465 29-08-2017 14:40:00 25.5 C 69 % 19.39 C
466 29-08-2017 14:45:00 25.6 C 65 % 18.53 C
467 29-08-2017 14:50:00 25.8 C 69 % 19.68 C
468 29-08-2017 14:55:00 25.8 C 75 % 21.03 C
469 29-08-2017 15:00:00 25.7 C 68 % 19.35 C
470 29-08-2017 15:05:00 25.8 C 61 % 17.71 C
471 29-08-2017 15:10:00 26.1 C 70 % 20.2 C
472 29-08-2017 15:15:00 25.9 C 61 % 17.8 C
473 29-08-2017 15:20:00 26.1 C 63 % 18.5 C
474 29-08-2017 15:25:00 26.3 C 60 % 17.91 C
475 29-08-2017 15:30:00 26.3 C 69 % 20.16 C
Sensor: Nr:Datum:Temp:Feuchte:Taupunkt:
Aussen-T/F 476 29-08-2017 15:35:00 26.2 C 66 % 19.34 C
477 29-08-2017 15:40:00 26.2 C 60 % 17.82 C
478 29-08-2017 15:45:00 26.6 C 68 % 20.2 C
479 29-08-2017 15:50:00 26.6 C 63 % 18.97 C
480 29-08-2017 15:55:00 26.4 C 70 % 20.48 C
481 29-08-2017 16:00:00 26.3 C 65 % 19.19 C
482 29-08-2017 16:05:00 26.4 C 72 % 20.94 C
483 29-08-2017 16:10:00 26.3 C 67 % 19.68 C
484 29-08-2017 16:15:00 26.6 C 60 % 18.2 C
485 29-08-2017 16:20:00 26.8 C 58 % 17.84 C
486 29-08-2017 16:25:00 27.4 C 67 % 20.73 C
487 29-08-2017 16:30:00 27.8 C 68 % 21.35 C
488 29-08-2017 16:35:00 27.9 C 65 % 20.71 C
489 29-08-2017 16:40:00 28.1 C 62 % 20.13 C
490 29-08-2017 16:45:00 28.3 C 56 % 18.68 C
491 29-08-2017 16:50:00 28.6 C 62 % 20.6 C
492 29-08-2017 16:55:00 29 C 66 % 22 C
493 29-08-2017 17:00:00 29.1 C 60 % 20.54 C
494 29-08-2017 17:05:00 29 C 65 % 21.75 C
495 29-08-2017 17:10:00 28.9 C 58 % 19.8 C
496 29-08-2017 17:15:00 28.9 C 63 % 21.14 C
497 29-08-2017 17:20:00 28.9 C 65 % 21.65 C
498 29-08-2017 17:25:00 28.9 C 65 % 21.65 C
499 29-08-2017 17:30:00 28.8 C 63 % 21.05 C
500 29-08-2017 17:35:00 28.9 C 65 % 21.65 C
Sensor: Nr:Datum:Temp:Feuchte:Taupunkt:
Aussen-T/F 501 29-08-2017 17:40:00 28.8 C 65 % 21.56 C
502 29-08-2017 17:45:00 28.7 C 64 % 21.21 C
503 29-08-2017 17:50:00 28.8 C 65 % 21.56 C
504 29-08-2017 17:55:00 28.7 C 65 % 21.46 C
505 29-08-2017 18:00:00 28.4 C 66 % 21.43 C
506 29-08-2017 18:05:00 28.3 C 66 % 21.33 C
507 29-08-2017 18:10:00 28 C 66 % 21.05 C
508 29-08-2017 18:15:00 27.7 C 67 % 21.01 C
509 29-08-2017 18:20:00 27.4 C 68 % 20.97 C
510 29-08-2017 18:25:00 27.2 C 68 % 20.78 C
511 29-08-2017 18:30:00 26.9 C 69 % 20.73 C
512 29-08-2017 18:35:00 26.7 C 70 % 20.77 C
513 29-08-2017 18:40:00 26.6 C 70 % 20.67 C
514 29-08-2017 18:45:00 26.3 C 71 % 20.62 C
515 29-08-2017 18:50:00 26.2 C 71 % 20.52 C
516 29-08-2017 18:55:00 26.1 C 71 % 20.43 C
517 29-08-2017 19:00:00 25.9 C 71 % 20.24 C
518 29-08-2017 19:05:00 25.8 C 72 % 20.37 C
519 29-08-2017 19:10:00 25.7 C 71 % 20.04 C
520 29-08-2017 19:15:00 25.6 C 71 % 19.95 C
521 29-08-2017 19:20:00 25.3 C 72 % 19.89 C
522 29-08-2017 19:25:00 25.1 C 72 % 19.69 C
523 29-08-2017 19:30:00 24.8 C 73 % 19.63 C
524 29-08-2017 19:35:00 24.4 C 74 % 19.46 C
525 29-08-2017 19:40:00 24.1 C 74 % 19.17 C
Sensor: Nr:Datum:Temp:Feuchte:Taupunkt:
Aussen-T/F 526 29-08-2017 19:45:00 23.8 C 75 % 19.1 C
527 29-08-2017 19:50:00 23.5 C 76 % 19.02 C
528 29-08-2017 19:55:00 23.2 C 76 % 18.73 C
529 29-08-2017 20:00:00 23 C 77 % 18.75 C
530 29-08-2017 20:05:00 22.8 C 78 % 18.76 C
531 29-08-2017 20:10:00 22.6 C 78 % 18.57 C
532 29-08-2017 20:15:00 22.3 C 78 % 18.28 C
533 29-08-2017 20:20:00 22.2 C 78 % 18.18 C
534 29-08-2017 20:25:00 21.9 C 78 % 17.89 C
535 29-08-2017 20:30:00 21.8 C 79 % 18 C
536 29-08-2017 20:35:00 21.7 C 80 % 18.1 C
537 29-08-2017 20:40:00 21.6 C 80 % 18 C
538 29-08-2017 20:45:00 21.5 C 81 % 18.1 C
539 29-08-2017 20:50:00 21.4 C 81 % 18 C
540 29-08-2017 20:55:00 21.3 C 81 % 17.91 C
541 29-08-2017 21:00:00 21.2 C 82 % 18 C
542 29-08-2017 21:05:00 21.1 C 82 % 17.91 C
543 29-08-2017 21:10:00 21 C 83 % 18 C
544 29-08-2017 21:15:00 20.9 C 83 % 17.9 C
545 29-08-2017 21:20:00 20.8 C 84 % 18 C
546 29-08-2017 21:25:00 20.7 C 84 % 17.9 C
547 29-08-2017 21:30:00 20.6 C 84 % 17.8 C
548 29-08-2017 21:35:00 20.4 C 85 % 17.79 C
549 29-08-2017 21:40:00 20.3 C 86 % 17.88 C
550 29-08-2017 21:45:00 20.2 C 86 % 17.78 C
Sensor: Nr:Datum:Temp:Feuchte:Taupunkt:
Aussen-T/F 551 29-08-2017 21:50:00 20.1 C 87 % 17.87 C
552 29-08-2017 21:55:00 19.9 C 87 % 17.67 C
553 29-08-2017 22:00:00 19.9 C 87 % 17.67 C
554 29-08-2017 22:05:00 19.7 C 88 % 17.66 C
555 29-08-2017 22:10:00 19.7 C 88 % 17.66 C
556 29-08-2017 22:15:00 19.6 C 88 % 17.56 C
557 29-08-2017 22:20:00 19.5 C 88 % 17.46 C
558 29-08-2017 22:25:00 19.4 C 89 % 17.54 C
559 29-08-2017 22:30:00 19.3 C 89 % 17.44 C
560 29-08-2017 22:35:00 19.2 C 89 % 17.34 C
561 29-08-2017 22:40:00 19.2 C 89 % 17.34 C
562 29-08-2017 22:45:00 19.1 C 89 % 17.24 C
563 29-08-2017 22:50:00 18.9 C 89 % 17.05 C
564 29-08-2017 22:55:00 18.9 C 90 % 17.22 C
565 29-08-2017 23:00:00 18.8 C 90 % 17.12 C
566 29-08-2017 23:05:00 18.7 C 90 % 17.03 C
567 29-08-2017 23:10:00 18.6 C 90 % 16.93 C
568 29-08-2017 23:15:00 18.5 C 91 % 17 C
569 29-08-2017 23:20:00 18.4 C 91 % 16.9 C
570 29-08-2017 23:25:00 18.3 C 91 % 16.81 C
571 29-08-2017 23:30:00 18.3 C 91 % 16.81 C
572 29-08-2017 23:35:00 18.2 C 91 % 16.71 C
573 29-08-2017 23:40:00 18.1 C 91 % 16.61 C
574 29-08-2017 23:45:00 18.1 C 92 % 16.78 C
575 29-08-2017 23:50:00 18.1 C 92 % 16.78 C
Sensor: Nr:Datum:Temp:Feuchte:Taupunkt:
Aussen-T/F 576 29-08-2017 23:55:00 18 C 92 % 16.68 C
577 30-08-2017 00:00:00 17.9 C 92 % 16.58 C
578 30-08-2017 00:05:00 17.9 C 92 % 16.58 C
579 30-08-2017 00:10:00 17.9 C 92 % 16.58 C
580 30-08-2017 00:15:00 17.8 C 92 % 16.48 C
581 30-08-2017 00:20:00 17.8 C 92 % 16.48 C
582 30-08-2017 00:25:00 17.7 C 92 % 16.38 C
583 30-08-2017 00:30:00 17.7 C 93 % 16.55 C
584 30-08-2017 00:35:00 17.7 C 93 % 16.55 C
585 30-08-2017 00:40:00 17.6 C 93 % 16.45 C
586 30-08-2017 00:45:00 17.6 C 93 % 16.45 C
587 30-08-2017 00:50:00 17.5 C 93 % 16.36 C
588 30-08-2017 00:55:00 17.4 C 93 % 16.26 C
589 30-08-2017 01:00:00 17.4 C 93 % 16.26 C
590 30-08-2017 01:05:00 17.3 C 93 % 16.16 C
591 30-08-2017 01:10:00 17.3 C 93 % 16.16 C
592 30-08-2017 01:15:00 17.3 C 93 % 16.16 C
593 30-08-2017 01:20:00 17.2 C 93 % 16.06 C
594 30-08-2017 01:25:00 17.2 C 93 % 16.06 C
595 30-08-2017 01:30:00 17.2 C 93 % 16.06 C
596 30-08-2017 01:35:00 17.2 C 94 % 16.23 C
597 30-08-2017 01:40:00 17.2 C 94 % 16.23 C
598 30-08-2017 01:45:00 17.2 C 94 % 16.23 C
599 30-08-2017 01:50:00 17.2 C 94 % 16.23 C
600 30-08-2017 01:55:00 17.2 C 94 % 16.23 C
Sensor: Nr:Datum:Temp:Feuchte:Taupunkt:
Aussen-T/F 601 30-08-2017 02:00:00 17.2 C 94 % 16.23 C
602 30-08-2017 02:05:00 17.1 C 94 % 16.13 C
603 30-08-2017 02:10:00 17 C 94 % 16.03 C
604 30-08-2017 02:15:00 17 C 94 % 16.03 C
605 30-08-2017 02:20:00 16.9 C 94 % 15.93 C
606 30-08-2017 02:25:00 16.9 C 94 % 15.93 C
607 30-08-2017 02:30:00 16.9 C 94 % 15.93 C
608 30-08-2017 02:35:00 16.9 C 95 % 16.09 C
609 30-08-2017 02:40:00 16.8 C 94 % 15.83 C
610 30-08-2017 02:45:00 16.8 C 95 % 15.99 C
611 30-08-2017 02:50:00 16.7 C 95 % 15.9 C
612 30-08-2017 02:55:00 16.7 C 94 % 15.73 C
613 30-08-2017 03:00:00 16.7 C 95 % 15.9 C
614 30-08-2017 03:05:00 16.6 C 95 % 15.8 C
615 30-08-2017 03:10:00 16.6 C 95 % 15.8 C
616 30-08-2017 03:15:00 16.6 C 95 % 15.8 C
617 30-08-2017 03:20:00 16.6 C 95 % 15.8 C
618 30-08-2017 03:25:00 16.6 C 95 % 15.8 C
619 30-08-2017 03:30:00 16.5 C 95 % 15.7 C
620 30-08-2017 03:35:00 16.5 C 95 % 15.7 C
621 30-08-2017 03:40:00 16.4 C 95 % 15.6 C
622 30-08-2017 03:45:00 16.4 C 95 % 15.6 C
623 30-08-2017 03:50:00 16.3 C 95 % 15.5 C
624 30-08-2017 03:55:00 16.3 C 95 % 15.5 C
625 30-08-2017 04:00:00 16.3 C 95 % 15.5 C
Sensor: Nr:Datum:Temp:Feuchte:Taupunkt:
Aussen-T/F 626 30-08-2017 04:05:00 16.2 C 95 % 15.4 C
627 30-08-2017 04:10:00 16.2 C 95 % 15.4 C
628 30-08-2017 04:15:00 16.2 C 95 % 15.4 C
629 30-08-2017 04:20:00 16.2 C 95 % 15.4 C
630 30-08-2017 04:25:00 16.2 C 96 % 15.56 C
631 30-08-2017 04:30:00 16.1 C 95 % 15.3 C
632 30-08-2017 04:35:00 16.1 C 95 % 15.3 C
633 30-08-2017 04:40:00 16.1 C 96 % 15.46 C
634 30-08-2017 04:45:00 16.1 C 95 % 15.3 C
635 30-08-2017 04:50:00 16.1 C 96 % 15.46 C
636 30-08-2017 04:55:00 16.1 C 95 % 15.3 C
637 30-08-2017 05:00:00 15.9 C 95 % 15.1 C
638 30-08-2017 05:05:00 15.9 C 96 % 15.26 C
639 30-08-2017 05:10:00 15.9 C 96 % 15.26 C
640 30-08-2017 05:15:00 15.9 C 96 % 15.26 C
641 30-08-2017 05:20:00 15.9 C 96 % 15.26 C
642 30-08-2017 05:25:00 15.8 C 96 % 15.16 C
643 30-08-2017 05:30:00 15.7 C 95 % 14.9 C
644 30-08-2017 05:35:00 15.7 C 96 % 15.06 C
645 30-08-2017 05:40:00 15.8 C 96 % 15.16 C
646 30-08-2017 05:45:00 15.7 C 96 % 15.06 C
647 30-08-2017 05:50:00 15.8 C 96 % 15.16 C
648 30-08-2017 05:55:00 15.7 C 96 % 15.06 C
649 30-08-2017 06:00:00 15.7 C 96 % 15.06 C
650 30-08-2017 06:05:00 15.6 C 96 % 14.96 C
Sensor: Nr:Datum:Temp:Feuchte:Taupunkt:
Aussen-T/F 651 30-08-2017 06:10:00 15.6 C 96 % 14.96 C
652 30-08-2017 06:15:00 15.6 C 96 % 14.96 C
653 30-08-2017 06:20:00 15.6 C 96 % 14.96 C
654 30-08-2017 06:25:00 15.6 C 96 % 14.96 C
655 30-08-2017 06:30:00 15.6 C 96 % 14.96 C
656 30-08-2017 06:35:00 15.7 C 96 % 15.06 C
657 30-08-2017 06:40:00 15.7 C 96 % 15.06 C
658 30-08-2017 06:45:00 15.6 C 96 % 14.96 C
659 30-08-2017 06:50:00 15.6 C 96 % 14.96 C
660 30-08-2017 06:55:00 15.4 C 96 % 14.77 C
661 30-08-2017 07:00:00 15.5 C 96 % 14.86 C
662 30-08-2017 07:05:00 15.5 C 96 % 14.86 C
663 30-08-2017 07:10:00 15.5 C 96 % 14.86 C
664 30-08-2017 07:15:00 15.5 C 96 % 14.86 C
665 30-08-2017 07:20:00 15.6 C 96 % 14.96 C
666 30-08-2017 07:25:00 15.6 C 96 % 14.96 C
667 30-08-2017 07:30:00 15.6 C 96 % 14.96 C
668 30-08-2017 07:35:00 15.6 C 96 % 14.96 C
669 30-08-2017 07:40:00 15.7 C 96 % 15.06 C
670 30-08-2017 07:45:00 15.7 C 96 % 15.06 C
671 30-08-2017 07:50:00 15.9 C 97 % 15.42 C
672 30-08-2017 07:55:00 16.1 C 97 % 15.62 C
673 30-08-2017 08:00:00 16.2 C 97 % 15.72 C
674 30-08-2017 08:05:00 16.3 C 97 % 15.82 C
675 30-08-2017 08:10:00 16.3 C 97 % 15.82 C
Sensor: Nr:Datum:Temp:Feuchte:Taupunkt:
Aussen-T/F 676 30-08-2017 08:15:00 16.4 C 97 % 15.92 C
677 30-08-2017 08:20:00 16.6 C 97 % 16.12 C
678 30-08-2017 08:25:00 16.7 C 97 % 16.22 C
679 30-08-2017 08:30:00 16.8 C 97 % 16.32 C
680 30-08-2017 08:35:00 16.9 C 97 % 16.42 C
681 30-08-2017 08:40:00 17.1 C 97 % 16.62 C
682 30-08-2017 08:45:00 17.2 C 97 % 16.72 C
683 30-08-2017 08:50:00 17.3 C 97 % 16.82 C
684 30-08-2017 08:55:00 17.3 C 97 % 16.82 C
685 30-08-2017 09:00:00 17.4 C 97 % 16.92 C
686 30-08-2017 09:05:00 17.5 C 97 % 17.02 C
687 30-08-2017 09:10:00 17.6 C 97 % 17.12 C
688 30-08-2017 09:15:00 17.7 C 97 % 17.22 C
689 30-08-2017 09:20:00 17.8 C 97 % 17.32 C
690 30-08-2017 09:25:00 17.9 C 97 % 17.42 C
691 30-08-2017 09:30:00 18 C 97 % 17.52 C
692 30-08-2017 09:35:00 18.2 C 97 % 17.72 C
693 30-08-2017 09:40:00 18.3 C 97 % 17.82 C
694 30-08-2017 09:45:00 18.5 C 97 % 18.01 C
695 30-08-2017 09:50:00 18.7 C 97 % 18.21 C
696 30-08-2017 09:55:00 18.8 C 97 % 18.31 C
697 30-08-2017 10:00:00 18.9 C 97 % 18.41 C
698 30-08-2017 10:05:00 18.9 C 97 % 18.41 C
699 30-08-2017 10:10:00 18.9 C 97 % 18.41 C
700 30-08-2017 10:15:00 19.1 C 97 % 18.61 C
Sensor: Nr:Datum:Temp:Feuchte:Taupunkt:
Aussen-T/F 701 30-08-2017 10:20:00 19.3 C 97 % 18.81 C
702 30-08-2017 10:25:00 19.6 C 97 % 19.11 C
703 30-08-2017 10:30:00 19.7 C 96 % 19.04 C
704 30-08-2017 10:35:00 19.9 C 96 % 19.24 C
705 30-08-2017 10:40:00 20 C 96 % 19.34 C
706 30-08-2017 10:45:00 20.2 C 96 % 19.54 C
707 30-08-2017 10:50:00 20.4 C 95 % 19.57 C
708 30-08-2017 10:55:00 20.6 C 95 % 19.77 C
709 30-08-2017 11:00:00 20.8 C 94 % 19.8 C
710 30-08-2017 11:05:00 21.1 C 94 % 20.1 C
711 30-08-2017 11:10:00 21.2 C 94 % 20.19 C
712 30-08-2017 11:15:00 21.4 C 94 % 20.39 C
713 30-08-2017 11:20:00 21.6 C 93 % 20.42 C
714 30-08-2017 11:25:00 21.8 C 93 % 20.62 C
715 30-08-2017 11:30:00 22 C 93 % 20.81 C
716 30-08-2017 11:35:00 22.2 C 92 % 20.84 C
717 30-08-2017 11:40:00 22.3 C 92 % 20.94 C
718 30-08-2017 11:45:00 22.4 C 91 % 20.86 C
719 30-08-2017 11:50:00 22.6 C 91 % 21.05 C
720 30-08-2017 11:55:00 22.7 C 90 % 20.97 C
721 30-08-2017 12:00:00 22.7 C 89 % 20.79 C
722 30-08-2017 12:05:00 22.9 C 89 % 20.99 C
723 30-08-2017 12:10:00 23.1 C 89 % 21.19 C
724 30-08-2017 12:15:00 23.3 C 89 % 21.38 C
725 30-08-2017 12:20:00 23.4 C 88 % 21.3 C
Sensor: Nr:Datum:Temp:Feuchte:Taupunkt:
Aussen-T/F 726 30-08-2017 12:25:00 23.6 C 87 % 21.31 C
727 30-08-2017 12:30:00 23.7 C 87 % 21.41 C
728 30-08-2017 12:35:00 23.8 C 87 % 21.5 C
729 30-08-2017 12:40:00 24.1 C 87 % 21.8 C
730 30-08-2017 12:45:00 24.2 C 87 % 21.9 C
731 30-08-2017 12:50:00 24.4 C 87 % 22.09 C
732 30-08-2017 12:55:00 24.6 C 86 % 22.1 C
733 30-08-2017 13:00:00 24.7 C 86 % 22.2 C
734 30-08-2017 13:05:00 24.9 C 85 % 22.2 C
735 30-08-2017 13:10:00 25.2 C 87 % 22.88 C
736 30-08-2017 13:15:00 25.4 C 83 % 22.3 C
737 30-08-2017 13:20:00 25.6 C 85 % 22.89 C
738 30-08-2017 13:25:00 25.7 C 84 % 22.79 C
739 30-08-2017 13:30:00 25.8 C 84 % 22.89 C
740 30-08-2017 13:35:00 25.8 C 84 % 22.89 C
741 30-08-2017 13:40:00 25.8 C 83 % 22.69 C
742 30-08-2017 13:45:00 25.8 C 83 % 22.69 C
743 30-08-2017 13:50:00 25.8 C 83 % 22.69 C
744 30-08-2017 13:55:00 25.8 C 82 % 22.49 C
745 30-08-2017 14:00:00 25.9 C 79 % 21.97 C
746 30-08-2017 14:05:00 26 C 83 % 22.89 C
747 30-08-2017 14:10:00 26 C 81 % 22.48 C
748 30-08-2017 14:15:00 26.1 C 82 % 22.78 C
749 30-08-2017 14:20:00 26.1 C 80 % 22.38 C
750 30-08-2017 14:25:00 26.3 C 80 % 22.57 C
Sensor: Nr:Datum:Temp:Feuchte:Taupunkt:
Aussen-T/F 751 30-08-2017 14:30:00 26.4 C 78 % 22.25 C
752 30-08-2017 14:35:00 26.7 C 74 % 21.68 C
753 30-08-2017 14:40:00 26.8 C 76 % 22.21 C
754 30-08-2017 14:45:00 26.9 C 76 % 22.31 C
755 30-08-2017 14:50:00 27 C 74 % 21.97 C
756 30-08-2017 14:55:00 27.1 C 71 % 21.38 C
757 30-08-2017 15:00:00 27.2 C 70 % 21.25 C
758 30-08-2017 15:05:00 27.2 C 69 % 21.01 C
759 30-08-2017 15:10:00 27.3 C 71 % 21.58 C
760 30-08-2017 15:15:00 27.4 C 72 % 21.9 C
761 30-08-2017 15:20:00 27.6 C 69 % 21.39 C
762 30-08-2017 15:25:00 27.7 C 74 % 22.64 C
763 30-08-2017 15:30:00 27.6 C 69 % 21.39 C
764 30-08-2017 15:35:00 27.6 C 76 % 22.98 C
765 30-08-2017 15:40:00 27.4 C 77 % 23.01 C
766 30-08-2017 15:45:00 27.1 C 76 % 22.5 C
767 30-08-2017 15:50:00 26.8 C 77 % 22.43 C
768 30-08-2017 15:55:00 26.6 C 79 % 22.65 C
769 30-08-2017 16:00:00 26.4 C 80 % 22.67 C
770 30-08-2017 16:05:00 26.3 C 80 % 22.57 C
771 30-08-2017 16:10:00 26.1 C 79 % 22.17 C
772 30-08-2017 16:15:00 25.9 C 80 % 22.18 C
773 30-08-2017 16:20:00 25.7 C 81 % 22.19 C
774 30-08-2017 16:25:00 25.5 C 81 % 22 C
775 30-08-2017 16:30:00 25.4 C 83 % 22.3 C
Sensor: Nr:Datum:Temp:Feuchte:Taupunkt:
Aussen-T/F 776 30-08-2017 16:35:00 25.3 C 83 % 22.2 C
777 30-08-2017 16:40:00 25.2 C 83 % 22.1 C
778 30-08-2017 16:45:00 25.1 C 82 % 21.81 C
779 30-08-2017 16:50:00 24.9 C 83 % 21.81 C
780 30-08-2017 16:55:00 24.8 C 84 % 21.91 C
781 30-08-2017 17:00:00 24.8 C 85 % 22.1 C
782 30-08-2017 17:05:00 24.8 C 85 % 22.1 C
783 30-08-2017 17:10:00 24.9 C 84 % 22.01 C
784 30-08-2017 17:15:00 24.9 C 84 % 22.01 C
785 30-08-2017 17:20:00 24.9 C 81 % 21.41 C
786 30-08-2017 17:25:00 24.9 C 82 % 21.61 C
787 30-08-2017 17:30:00 24.9 C 83 % 21.81 C
788 30-08-2017 17:35:00 24.8 C 81 % 21.31 C
789 30-08-2017 17:40:00 24.8 C 83 % 21.71 C
790 30-08-2017 17:45:00 24.6 C 80 % 20.92 C
791 30-08-2017 17:50:00 24.5 C 82 % 21.22 C
792 30-08-2017 17:55:00 24.4 C 82 % 21.12 C
793 30-08-2017 18:00:00 24.2 C 83 % 21.13 C
794 30-08-2017 18:05:00 24.1 C 82 % 20.83 C
795 30-08-2017 18:10:00 23.9 C 83 % 20.83 C
796 30-08-2017 18:15:00 23.8 C 83 % 20.74 C
797 30-08-2017 18:20:00 23.7 C 84 % 20.83 C
798 30-08-2017 18:25:00 23.6 C 84 % 20.74 C
799 30-08-2017 18:30:00 23.6 C 84 % 20.74 C
800 30-08-2017 18:35:00 23.4 C 84 % 20.54 C
Sensor: Nr:Datum:Temp:Feuchte:Taupunkt:
Aussen-T/F 801 30-08-2017 18:40:00 23.3 C 84 % 20.44 C
802 30-08-2017 18:45:00 23.3 C 84 % 20.44 C
803 30-08-2017 18:50:00 23.2 C 85 % 20.54 C
804 30-08-2017 18:55:00 23.2 C 85 % 20.54 C
805 30-08-2017 19:00:00 23.1 C 85 % 20.44 C
806 30-08-2017 19:05:00 23.1 C 85 % 20.44 C
807 30-08-2017 19:10:00 23 C 85 % 20.34 C
808 30-08-2017 19:15:00 22.9 C 85 % 20.24 C
809 30-08-2017 19:20:00 22.8 C 84 % 19.95 C
810 30-08-2017 19:25:00 22.8 C 84 % 19.95 C
811 30-08-2017 19:30:00 22.8 C 85 % 20.14 C
812 30-08-2017 19:35:00 22.7 C 85 % 20.05 C
813 30-08-2017 19:40:00 22.6 C 85 % 19.95 C
814 30-08-2017 19:45:00 22.6 C 85 % 19.95 C
815 30-08-2017 19:50:00 22.5 C 85 % 19.85 C
816 30-08-2017 19:55:00 22.4 C 85 % 19.75 C
817 30-08-2017 20:00:00 22.3 C 85 % 19.65 C
818 30-08-2017 20:05:00 22.2 C 85 % 19.56 C
819 30-08-2017 20:10:00 22.2 C 86 % 19.75 C
820 30-08-2017 20:15:00 22.1 C 85 % 19.46 C
821 30-08-2017 20:20:00 22.1 C 85 % 19.46 C
822 30-08-2017 20:25:00 21.9 C 85 % 19.26 C
823 30-08-2017 20:30:00 21.9 C 85 % 19.26 C
824 30-08-2017 20:35:00 21.8 C 85 % 19.16 C
825 30-08-2017 20:40:00 21.8 C 85 % 19.16 C
Sensor: Nr:Datum:Temp:Feuchte:Taupunkt:
Aussen-T/F 826 30-08-2017 20:45:00 21.7 C 85 % 19.07 C
827 30-08-2017 20:50:00 21.7 C 85 % 19.07 C
828 30-08-2017 20:55:00 21.7 C 86 % 19.25 C
829 30-08-2017 21:00:00 21.6 C 86 % 19.16 C
830 30-08-2017 21:05:00 21.5 C 84 % 18.68 C
831 30-08-2017 21:10:00 21.5 C 85 % 18.87 C
832 30-08-2017 21:15:00 21.5 C 85 % 18.87 C
833 30-08-2017 21:20:00 21.6 C 86 % 19.16 C
834 30-08-2017 21:25:00 21.5 C 86 % 19.06 C
835 30-08-2017 21:30:00 21.5 C 85 % 18.87 C
836 30-08-2017 21:35:00 21.6 C 86 % 19.16 C
837 30-08-2017 21:40:00 21.6 C 86 % 19.16 C
838 30-08-2017 21:45:00 21.6 C 85 % 18.97 C
839 30-08-2017 21:50:00 21.6 C 85 % 18.97 C
840 30-08-2017 21:55:00 21.7 C 86 % 19.25 C
841 30-08-2017 22:00:00 21.7 C 85 % 19.07 C
842 30-08-2017 22:05:00 21.7 C 85 % 19.07 C
843 30-08-2017 22:10:00 21.8 C 85 % 19.16 C
844 30-08-2017 22:15:00 21.8 C 85 % 19.16 C
845 30-08-2017 22:20:00 21.8 C 84 % 18.97 C
846 30-08-2017 22:25:00 21.8 C 84 % 18.97 C
847 30-08-2017 22:30:00 21.8 C 85 % 19.16 C
848 30-08-2017 22:35:00 21.8 C 85 % 19.16 C
849 30-08-2017 22:40:00 21.8 C 83 % 18.78 C
850 30-08-2017 22:45:00 21.8 C 85 % 19.16 C
Sensor: Nr:Datum:Temp:Feuchte:Taupunkt:
Aussen-T/F 851 30-08-2017 22:50:00 21.8 C 85 % 19.16 C
852 30-08-2017 22:55:00 21.7 C 84 % 18.88 C
853 30-08-2017 23:00:00 21.7 C 85 % 19.07 C
854 30-08-2017 23:05:00 21.6 C 85 % 18.97 C
855 30-08-2017 23:10:00 21.6 C 86 % 19.16 C
856 30-08-2017 23:15:00 21.5 C 85 % 18.87 C
857 30-08-2017 23:20:00 21.4 C 85 % 18.77 C
858 30-08-2017 23:25:00 21.4 C 86 % 18.96 C
859 30-08-2017 23:30:00 21.3 C 86 % 18.86 C
860 30-08-2017 23:35:00 21.3 C 86 % 18.86 C
861 30-08-2017 23:40:00 21.2 C 87 % 18.95 C
862 30-08-2017 23:45:00 21.2 C 87 % 18.95 C
863 30-08-2017 23:50:00 21.1 C 87 % 18.85 C
864 30-08-2017 23:55:00 21.1 C 87 % 18.85 C
865 31-08-2017 00:00:00 20.9 C 88 % 18.84 C
866 31-08-2017 00:05:00 20.9 C 88 % 18.84 C
867 31-08-2017 00:10:00 20.8 C 88 % 18.74 C
868 31-08-2017 00:15:00 20.8 C 88 % 18.74 C
869 31-08-2017 00:20:00 20.8 C 88 % 18.74 C
870 31-08-2017 00:25:00 20.7 C 88 % 18.64 C
871 31-08-2017 00:30:00 20.7 C 88 % 18.64 C
872 31-08-2017 00:35:00 20.7 C 88 % 18.64 C
873 31-08-2017 00:40:00 20.6 C 88 % 18.54 C
874 31-08-2017 00:45:00 20.6 C 89 % 18.72 C
875 31-08-2017 00:50:00 20.5 C 88 % 18.44 C
Sensor: Nr:Datum:Temp:Feuchte:Taupunkt:
Aussen-T/F 876 31-08-2017 00:55:00 20.4 C 88 % 18.34 C
877 31-08-2017 01:00:00 20.3 C 88 % 18.25 C
878 31-08-2017 01:05:00 20.3 C 88 % 18.25 C
879 31-08-2017 01:10:00 20.2 C 88 % 18.15 C
880 31-08-2017 01:15:00 20.2 C 88 % 18.15 C
881 31-08-2017 01:20:00 20.1 C 88 % 18.05 C
882 31-08-2017 01:25:00 20.1 C 89 % 18.23 C
883 31-08-2017 01:30:00 20 C 89 % 18.13 C
884 31-08-2017 01:35:00 20 C 89 % 18.13 C
885 31-08-2017 01:40:00 20 C 89 % 18.13 C
886 31-08-2017 01:45:00 20 C 89 % 18.13 C
887 31-08-2017 01:50:00 20.1 C 89 % 18.23 C
888 31-08-2017 01:55:00 20.1 C 88 % 18.05 C
889 31-08-2017 02:00:00 20.1 C 88 % 18.05 C
890 31-08-2017 02:05:00 20.1 C 88 % 18.05 C
891 31-08-2017 02:10:00 20.1 C 88 % 18.05 C
892 31-08-2017 02:15:00 20.1 C 88 % 18.05 C
893 31-08-2017 02:20:00 20.1 C 88 % 18.05 C
894 31-08-2017 02:25:00 20.1 C 88 % 18.05 C
895 31-08-2017 02:30:00 20.1 C 88 % 18.05 C
896 31-08-2017 02:35:00 20.2 C 88 % 18.15 C
897 31-08-2017 02:40:00 20.2 C 87 % 17.97 C
898 31-08-2017 02:45:00 20.2 C 87 % 17.97 C
899 31-08-2017 02:50:00 20.1 C 88 % 18.05 C
900 31-08-2017 02:55:00 20.1 C 88 % 18.05 C
Sensor: Nr:Datum:Temp:Feuchte:Taupunkt:
Aussen-T/F 901 31-08-2017 03:00:00 20 C 88 % 17.95 C
902 31-08-2017 03:05:00 19.9 C 88 % 17.85 C
903 31-08-2017 03:10:00 19.9 C 88 % 17.85 C
904 31-08-2017 03:15:00 19.9 C 88 % 17.85 C
905 31-08-2017 03:20:00 19.9 C 88 % 17.85 C
906 31-08-2017 03:25:00 19.9 C 88 % 17.85 C
907 31-08-2017 03:30:00 19.9 C 88 % 17.85 C
908 31-08-2017 03:35:00 19.9 C 87 % 17.67 C
909 31-08-2017 03:40:00 20 C 87 % 17.77 C
910 31-08-2017 03:45:00 20 C 88 % 17.95 C
911 31-08-2017 03:50:00 20 C 88 % 17.95 C
912 31-08-2017 03:55:00 20 C 88 % 17.95 C
913 31-08-2017 04:00:00 19.9 C 87 % 17.67 C
914 31-08-2017 04:05:00 19.9 C 87 % 17.67 C
915 31-08-2017 04:10:00 19.9 C 88 % 17.85 C
916 31-08-2017 04:15:00 19.9 C 87 % 17.67 C
917 31-08-2017 04:20:00 19.8 C 87 % 17.57 C
918 31-08-2017 04:25:00 19.8 C 88 % 17.75 C
919 31-08-2017 04:30:00 19.8 C 88 % 17.75 C
920 31-08-2017 04:35:00 19.8 C 88 % 17.75 C
921 31-08-2017 04:40:00 19.7 C 88 % 17.66 C
922 31-08-2017 04:45:00 19.7 C 88 % 17.66 C
923 31-08-2017 04:50:00 19.7 C 88 % 17.66 C
924 31-08-2017 04:55:00 19.7 C 88 % 17.66 C
925 31-08-2017 05:00:00 19.7 C 88 % 17.66 C
Sensor: Nr:Datum:Temp:Feuchte:Taupunkt:
Aussen-T/F 926 31-08-2017 05:05:00 19.7 C 88 % 17.66 C
927 31-08-2017 05:10:00 19.6 C 88 % 17.56 C
928 31-08-2017 05:15:00 19.6 C 88 % 17.56 C
929 31-08-2017 05:20:00 19.6 C 88 % 17.56 C
930 31-08-2017 05:25:00 19.6 C 88 % 17.56 C
931 31-08-2017 05:30:00 19.5 C 88 % 17.46 C
932 31-08-2017 05:35:00 19.4 C 89 % 17.54 C
933 31-08-2017 05:40:00 19.4 C 89 % 17.54 C
934 31-08-2017 05:45:00 19.3 C 89 % 17.44 C
935 31-08-2017 05:50:00 19.3 C 90 % 17.62 C
936 31-08-2017 05:55:00 19.3 C 90 % 17.62 C
937 31-08-2017 06:00:00 19.3 C 90 % 17.62 C
938 31-08-2017 06:05:00 19.3 C 90 % 17.62 C
939 31-08-2017 06:10:00 19.3 C 90 % 17.62 C
940 31-08-2017 06:15:00 19.3 C 90 % 17.62 C
941 31-08-2017 06:20:00 19.2 C 91 % 17.69 C
942 31-08-2017 06:25:00 19.2 C 90 % 17.52 C
943 31-08-2017 06:30:00 19.2 C 90 % 17.52 C
944 31-08-2017 06:35:00 19.2 C 90 % 17.52 C
945 31-08-2017 06:40:00 19.2 C 90 % 17.52 C
946 31-08-2017 06:45:00 19.2 C 90 % 17.52 C
947 31-08-2017 06:50:00 19.3 C 90 % 17.62 C
948 31-08-2017 06:55:00 19.3 C 90 % 17.62 C
949 31-08-2017 07:00:00 19.3 C 90 % 17.62 C
950 31-08-2017 07:05:00 19.2 C 86 % 16.8 C
Sensor: Nr:Datum:Temp:Feuchte:Taupunkt:
Aussen-T/F 951 31-08-2017 07:10:00 18.8 C 85 % 16.23 C
952 31-08-2017 07:15:00 18.4 C 84 % 15.65 C
953 31-08-2017 07:20:00 17.9 C 85 % 15.34 C
954 31-08-2017 07:25:00 17.6 C 86 % 15.23 C
955 31-08-2017 07:30:00 17.3 C 86 % 14.94 C
956 31-08-2017 07:35:00 17.2 C 88 % 15.2 C
957 31-08-2017 07:40:00 16.9 C 88 % 14.9 C
958 31-08-2017 07:45:00 16.7 C 89 % 14.88 C
959 31-08-2017 07:50:00 16.4 C 89 % 14.58 C
960 31-08-2017 07:55:00 16.2 C 91 % 14.73 C
961 31-08-2017 08:00:00 16 C 92 % 14.7 C
962 31-08-2017 08:05:00 15.9 C 93 % 14.77 C
963 31-08-2017 08:10:00 15.8 C 93 % 14.67 C
964 31-08-2017 08:15:00 15.7 C 93 % 14.57 C
965 31-08-2017 08:20:00 15.6 C 94 % 14.64 C
966 31-08-2017 08:25:00 15.6 C 94 % 14.64 C
967 31-08-2017 08:30:00 15.4 C 94 % 14.44 C
968 31-08-2017 08:35:00 15.4 C 94 % 14.44 C
969 31-08-2017 08:40:00 15.4 C 94 % 14.44 C
970 31-08-2017 08:45:00 15.4 C 95 % 14.6 C
971 31-08-2017 08:50:00 15.3 C 94 % 14.34 C
972 31-08-2017 08:55:00 15.3 C 95 % 14.5 C
973 31-08-2017 09:00:00 15.4 C 95 % 14.6 C
974 31-08-2017 09:05:00 15.4 C 95 % 14.6 C
975 31-08-2017 09:10:00 15.3 C 94 % 14.34 C
Sensor: Nr:Datum:Temp:Feuchte:Taupunkt:
Aussen-T/F 976 31-08-2017 09:15:00 15.1 C 94 % 14.14 C
977 31-08-2017 09:20:00 15.1 C 94 % 14.14 C
978 31-08-2017 09:25:00 15.1 C 94 % 14.14 C
979 31-08-2017 09:30:00 14.9 C 94 % 13.94 C
980 31-08-2017 09:35:00 15 C 95 % 14.21 C
981 31-08-2017 09:40:00 15.1 C 95 % 14.31 C
982 31-08-2017 09:45:00 15.1 C 95 % 14.31 C
983 31-08-2017 09:50:00 15.1 C 95 % 14.31 C
984 31-08-2017 09:55:00 15.2 C 95 % 14.4 C
985 31-08-2017 10:00:00 15.2 C 95 % 14.4 C
986 31-08-2017 10:05:00 15.3 C 95 % 14.5 C
987 31-08-2017 10:10:00 15.3 C 95 % 14.5 C
988 31-08-2017 10:15:00 15.4 C 96 % 14.77 C
989 31-08-2017 10:20:00 15.2 C 94 % 14.24 C
990 31-08-2017 10:25:00 15.1 C 94 % 14.14 C
991 31-08-2017 10:30:00 15.1 C 94 % 14.14 C
992 31-08-2017 10:35:00 15.1 C 94 % 14.14 C
993 31-08-2017 10:40:00 15.2 C 94 % 14.24 C
994 31-08-2017 10:45:00 15.2 C 94 % 14.24 C
995 31-08-2017 10:50:00 15.3 C 94 % 14.34 C
996 31-08-2017 10:55:00 15.5 C 93 % 14.37 C
997 31-08-2017 11:00:00 15.6 C 92 % 14.31 C
998 31-08-2017 11:05:00 15.9 C 94 % 14.94 C
999 31-08-2017 11:10:00 15.9 C 91 % 14.43 C
1000 31-08-2017 11:15:00 16 C 91 % 14.53 C
Sensor: Nr:Datum:Temp:Feuchte:Taupunkt:
Aussen-T/F 1001 31-08-2017 11:20:00 16.1 C 89 % 14.29 C
1002 31-08-2017 11:25:00 16.1 C 89 % 14.29 C
1003 31-08-2017 11:30:00 16.3 C 90 % 14.66 C
1004 31-08-2017 11:35:00 16.3 C 89 % 14.48 C
1005 31-08-2017 11:40:00 16.3 C 88 % 14.31 C
1006 31-08-2017 11:45:00 16.4 C 88 % 14.41 C
1007 31-08-2017 11:50:00 16.4 C 88 % 14.41 C
1008 31-08-2017 11:55:00 16.6 C 88 % 14.6 C
1009 31-08-2017 12:00:00 16.7 C 88 % 14.7 C
1010 31-08-2017 12:05:00 16.7 C 88 % 14.7 C
1011 31-08-2017 12:10:00 16.8 C 87 % 14.62 C
1012 31-08-2017 12:15:00 16.8 C 85 % 14.26 C
1013 31-08-2017 12:20:00 16.9 C 86 % 14.54 C
1014 31-08-2017 12:25:00 17 C 86 % 14.64 C
1015 31-08-2017 12:30:00 17.1 C 83 % 14.19 C
1016 31-08-2017 12:35:00 17.2 C 84 % 14.47 C
1017 31-08-2017 12:40:00 17.2 C 83 % 14.29 C
1018 31-08-2017 12:45:00 17.2 C 82 % 14.1 C
1019 31-08-2017 12:50:00 17.3 C 82 % 14.2 C
1020 31-08-2017 12:55:00 17.4 C 83 % 14.48 C
1021 31-08-2017 13:00:00 17.4 C 80 % 13.92 C
1022 31-08-2017 13:05:00 17.5 C 81 % 14.2 C
1023 31-08-2017 13:10:00 17.5 C 80 % 14.01 C
1024 31-08-2017 13:15:00 17.6 C 81 % 14.3 C
1025 31-08-2017 13:20:00 17.7 C 80 % 14.21 C
Sensor: Nr:Datum:Temp:Feuchte:Taupunkt:
Aussen-T/F 1026 31-08-2017 13:25:00 17.7 C 81 % 14.4 C
1027 31-08-2017 13:30:00 17.8 C 78 % 13.91 C
1028 31-08-2017 13:35:00 17.8 C 81 % 14.5 C
1029 31-08-2017 13:40:00 17.9 C 81 % 14.59 C
1030 31-08-2017 13:45:00 18 C 79 % 14.31 C
1031 31-08-2017 13:50:00 18 C 80 % 14.5 C
1032 31-08-2017 13:55:00 17.9 C 78 % 14.01 C
1033 31-08-2017 14:00:00 17.8 C 78 % 13.91 C
1034 31-08-2017 14:05:00 17.7 C 81 % 14.4 C
1035 31-08-2017 14:10:00 17.6 C 80 % 14.11 C
1036 31-08-2017 14:15:00 17.5 C 80 % 14.01 C
1037 31-08-2017 14:20:00 17.4 C 80 % 13.92 C
1038 31-08-2017 14:25:00 17.4 C 80 % 13.92 C
1039 31-08-2017 14:30:00 17.3 C 79 % 13.63 C
1040 31-08-2017 14:35:00 17.1 C 81 % 13.82 C
1041 31-08-2017 14:40:00 16.9 C 83 % 14 C
1042 31-08-2017 14:45:00 16.8 C 83 % 13.9 C
1043 31-08-2017 14:50:00 16.7 C 83 % 13.8 C
1044 31-08-2017 14:55:00 16.6 C 83 % 13.7 C
1045 31-08-2017 15:00:00 16.4 C 84 % 13.69 C
1046 31-08-2017 15:05:00 16.4 C 84 % 13.69 C
1047 31-08-2017 15:10:00 16.4 C 86 % 14.05 C
1048 31-08-2017 15:15:00 16.4 C 87 % 14.23 C
1049 31-08-2017 15:20:00 16.3 C 85 % 13.77 C
1050 31-08-2017 15:25:00 16.2 C 84 % 13.5 C
Sensor: Nr:Datum:Temp:Feuchte:Taupunkt:
Aussen-T/F 1051 31-08-2017 15:30:00 16.2 C 85 % 13.68 C
1052 31-08-2017 15:35:00 16 C 85 % 13.48 C
1053 31-08-2017 15:40:00 15.9 C 87 % 13.74 C
1054 31-08-2017 15:45:00 15.8 C 86 % 13.46 C
1055 31-08-2017 15:50:00 15.7 C 86 % 13.37 C
1056 31-08-2017 15:55:00 15.7 C 86 % 13.37 C
1057 31-08-2017 16:00:00 15.7 C 85 % 13.19 C
1058 31-08-2017 16:05:00 15.7 C 85 % 13.19 C
1059 31-08-2017 16:10:00 15.7 C 86 % 13.37 C
1060 31-08-2017 16:15:00 15.8 C 84 % 13.1 C
1061 31-08-2017 16:20:00 15.8 C 83 % 12.92 C
1062 31-08-2017 16:25:00 15.8 C 83 % 12.92 C
1063 31-08-2017 16:30:00 15.9 C 85 % 13.38 C
1064 31-08-2017 16:35:00 16.1 C 86 % 13.76 C
1065 31-08-2017 16:40:00 16.2 C 84 % 13.5 C
1066 31-08-2017 16:45:00 16.3 C 83 % 13.41 C
1067 31-08-2017 16:50:00 16.3 C 83 % 13.41 C
1068 31-08-2017 16:55:00 16.3 C 81 % 13.04 C
1069 31-08-2017 17:00:00 16.4 C 82 % 13.32 C
1070 31-08-2017 17:05:00 16.4 C 82 % 13.32 C
1071 31-08-2017 17:10:00 16.4 C 80 % 12.94 C
1072 31-08-2017 17:15:00 16.4 C 82 % 13.32 C
1073 31-08-2017 17:20:00 16.6 C 84 % 13.89 C
1074 31-08-2017 17:25:00 16.6 C 85 % 14.07 C
1075 31-08-2017 17:30:00 16.6 C 80 % 13.14 C
Sensor: Nr:Datum:Temp:Feuchte:Taupunkt:
Aussen-T/F 1076 31-08-2017 17:35:00 16.7 C 84 % 13.98 C
1077 31-08-2017 17:40:00 16.7 C 85 % 14.17 C
1078 31-08-2017 17:45:00 16.6 C 79 % 12.95 C
1079 31-08-2017 17:50:00 16.7 C 79 % 13.04 C
1080 31-08-2017 17:55:00 16.8 C 76 % 12.55 C
1081 31-08-2017 18:00:00 16.9 C 75 % 12.44 C
1082 31-08-2017 18:05:00 17.1 C 78 % 13.24 C
1083 31-08-2017 18:10:00 17.1 C 75 % 12.64 C
1084 31-08-2017 18:15:00 17.3 C 75 % 12.83 C
1085 31-08-2017 18:20:00 17.8 C 73 % 12.9 C
1086 31-08-2017 18:25:00 18.5 C 82 % 15.37 C
1087 31-08-2017 18:30:00 18.9 C 71 % 13.53 C
1088 31-08-2017 18:35:00 19.2 C 76 % 14.87 C
1089 31-08-2017 18:40:00 19.5 C 76 % 15.16 C
1090 31-08-2017 18:45:00 19.6 C 75 % 15.05 C
1091 31-08-2017 18:50:00 19.4 C 74 % 14.65 C
1092 31-08-2017 18:55:00 19.2 C 77 % 15.07 C
1093 31-08-2017 19:00:00 18.9 C 77 % 14.78 C
1094 31-08-2017 19:05:00 18.6 C 78 % 14.69 C
1095 31-08-2017 19:10:00 18.2 C 78 % 14.3 C
1096 31-08-2017 19:15:00 17.8 C 78 % 13.91 C
1097 31-08-2017 19:20:00 17.4 C 79 % 13.72 C
1098 31-08-2017 19:25:00 17.1 C 80 % 13.62 C
1099 31-08-2017 19:30:00 16.7 C 81 % 13.43 C
1100 31-08-2017 19:35:00 16.4 C 81 % 13.13 C
Sensor: Nr:Datum:Temp:Feuchte:Taupunkt:
Aussen-T/F 1101 31-08-2017 19:40:00 16.2 C 83 % 13.31 C
1102 31-08-2017 19:45:00 16.1 C 83 % 13.21 C
1103 31-08-2017 19:50:00 16 C 84 % 13.3 C
1104 31-08-2017 19:55:00 15.9 C 84 % 13.2 C
1105 31-08-2017 20:00:00 15.8 C 84 % 13.1 C
1106 31-08-2017 20:05:00 15.6 C 84 % 12.91 C
1107 31-08-2017 20:10:00 15.3 C 84 % 12.61 C
1108 31-08-2017 20:15:00 15.2 C 85 % 12.7 C
1109 31-08-2017 20:20:00 14.9 C 86 % 12.58 C
1110 31-08-2017 20:25:00 14.8 C 86 % 12.48 C
1111 31-08-2017 20:30:00 14.6 C 86 % 12.29 C
1112 31-08-2017 20:35:00 14.5 C 87 % 12.36 C
1113 31-08-2017 20:40:00 14.3 C 87 % 12.17 C
1114 31-08-2017 20:45:00 14.2 C 87 % 12.07 C
1115 31-08-2017 20:50:00 14.1 C 87 % 11.97 C
1116 31-08-2017 20:55:00 13.9 C 87 % 11.77 C
1117 31-08-2017 21:00:00 13.9 C 88 % 11.95 C
1118 31-08-2017 21:05:00 13.8 C 87 % 11.68 C
1119 31-08-2017 21:10:00 13.7 C 88 % 11.75 C
1120 31-08-2017 21:15:00 13.7 C 89 % 11.92 C
1121 31-08-2017 21:20:00 13.7 C 89 % 11.92 C
1122 31-08-2017 21:25:00 13.6 C 89 % 11.82 C
1123 31-08-2017 21:30:00 13.4 C 90 % 11.79 C
1124 31-08-2017 21:35:00 13.4 C 90 % 11.79 C
1125 31-08-2017 21:40:00 13.3 C 90 % 11.7 C
Sensor: Nr:Datum:Temp:Feuchte:Taupunkt:
Aussen-T/F 1126 31-08-2017 21:45:00 13.3 C 90 % 11.7 C
1127 31-08-2017 21:50:00 13.2 C 90 % 11.6 C
1128 31-08-2017 21:55:00 13.2 C 90 % 11.6 C
1129 31-08-2017 22:00:00 13.1 C 91 % 11.67 C
1130 31-08-2017 22:05:00 13.1 C 91 % 11.67 C
1131 31-08-2017 22:10:00 12.9 C 91 % 11.47 C
1132 31-08-2017 22:15:00 12.9 C 92 % 11.63 C
1133 31-08-2017 22:20:00 12.8 C 92 % 11.53 C
1134 31-08-2017 22:25:00 12.8 C 92 % 11.53 C
1135 31-08-2017 22:30:00 12.8 C 92 % 11.53 C
1136 31-08-2017 22:35:00 12.7 C 92 % 11.43 C
1137 31-08-2017 22:40:00 12.7 C 93 % 11.6 C
1138 31-08-2017 22:45:00 12.7 C 93 % 11.6 C
1139 31-08-2017 22:50:00 12.6 C 93 % 11.5 C
1140 31-08-2017 22:55:00 12.6 C 93 % 11.5 C
1141 31-08-2017 23:00:00 12.6 C 93 % 11.5 C
1142 31-08-2017 23:05:00 12.5 C 93 % 11.4 C
1143 31-08-2017 23:10:00 12.5 C 93 % 11.4 C
1144 31-08-2017 23:15:00 12.4 C 93 % 11.3 C
1145 31-08-2017 23:20:00 12.3 C 93 % 11.2 C
1146 31-08-2017 23:25:00 12.3 C 94 % 11.36 C
1147 31-08-2017 23:30:00 12.3 C 94 % 11.36 C
1148 31-08-2017 23:35:00 12.3 C 94 % 11.36 C
1149 31-08-2017 23:40:00 12.2 C 94 % 11.26 C
1150 31-08-2017 23:45:00 12.2 C 94 % 11.26 C
Sensor: Nr:Datum:Temp:Feuchte:Taupunkt:
Aussen-T/F 1151 31-08-2017 23:50:00 12.2 C 94 % 11.26 C
1152 31-08-2017 23:55:00 12.2 C 94 % 11.26 C
1153 01-09-2017 00:00:00 12.2 C 94 % 11.26 C
1154 01-09-2017 00:05:00 12.2 C 94 % 11.26 C
1155 01-09-2017 00:10:00 12.1 C 94 % 11.16 C
1156 01-09-2017 00:15:00 12.1 C 94 % 11.16 C
1157 01-09-2017 00:20:00 12.1 C 95 % 11.32 C
1158 01-09-2017 00:25:00 12.2 C 95 % 11.42 C
1159 01-09-2017 00:30:00 12.2 C 95 % 11.42 C
1160 01-09-2017 00:35:00 12.2 C 95 % 11.42 C
1161 01-09-2017 00:40:00 12.2 C 95 % 11.42 C
1162 01-09-2017 00:45:00 12.1 C 95 % 11.32 C
1163 01-09-2017 00:50:00 12 C 94 % 11.07 C
1164 01-09-2017 00:55:00 11.9 C 94 % 10.97 C
1165 01-09-2017 01:00:00 11.8 C 94 % 10.87 C
1166 01-09-2017 01:05:00 11.7 C 94 % 10.77 C
1167 01-09-2017 01:10:00 11.7 C 95 % 10.93 C
1168 01-09-2017 01:15:00 11.6 C 94 % 10.67 C
1169 01-09-2017 01:20:00 11.6 C 94 % 10.67 C
1170 01-09-2017 01:25:00 11.6 C 95 % 10.83 C
1171 01-09-2017 01:30:00 11.5 C 95 % 10.73 C
1172 01-09-2017 01:35:00 11.4 C 95 % 10.63 C
1173 01-09-2017 01:40:00 11.4 C 95 % 10.63 C
1174 01-09-2017 01:45:00 11.3 C 95 % 10.53 C
1175 01-09-2017 01:50:00 11.3 C 95 % 10.53 C
Sensor: Nr:Datum:Temp:Feuchte:Taupunkt:
Aussen-T/F 1176 01-09-2017 01:55:00 11.3 C 95 % 10.53 C
1177 01-09-2017 02:00:00 11.2 C 95 % 10.43 C
1178 01-09-2017 02:05:00 11.2 C 95 % 10.43 C
1179 01-09-2017 02:10:00 11.2 C 95 % 10.43 C
1180 01-09-2017 02:15:00 11.2 C 95 % 10.43 C
1181 01-09-2017 02:20:00 11.2 C 95 % 10.43 C
1182 01-09-2017 02:25:00 11.1 C 95 % 10.33 C
1183 01-09-2017 02:30:00 11.1 C 95 % 10.33 C
1184 01-09-2017 02:35:00 11 C 95 % 10.23 C
1185 01-09-2017 02:40:00 10.9 C 95 % 10.13 C
1186 01-09-2017 02:45:00 10.9 C 95 % 10.13 C
1187 01-09-2017 02:50:00 10.9 C 95 % 10.13 C
1188 01-09-2017 02:55:00 10.9 C 95 % 10.13 C
1189 01-09-2017 03:00:00 10.8 C 95 % 10.03 C
1190 01-09-2017 03:05:00 10.7 C 95 % 9.93 C
1191 01-09-2017 03:10:00 10.7 C 95 % 9.93 C
1192 01-09-2017 03:15:00 10.7 C 95 % 9.93 C
1193 01-09-2017 03:20:00 10.6 C 95 % 9.83 C
1194 01-09-2017 03:25:00 10.6 C 95 % 9.83 C
1195 01-09-2017 03:30:00 10.5 C 95 % 9.73 C
1196 01-09-2017 03:35:00 10.4 C 95 % 9.63 C
1197 01-09-2017 03:40:00 10.4 C 95 % 9.63 C
1198 01-09-2017 03:45:00 10.4 C 95 % 9.63 C
1199 01-09-2017 03:50:00 10.3 C 95 % 9.54 C
1200 01-09-2017 03:55:00 10.3 C 95 % 9.54 C
Sensor: Nr:Datum:Temp:Feuchte:Taupunkt:
Aussen-T/F 1201 01-09-2017 04:00:00 10.3 C 95 % 9.54 C
1202 01-09-2017 04:05:00 10.3 C 95 % 9.54 C
1203 01-09-2017 04:10:00 10.3 C 95 % 9.54 C
1204 01-09-2017 04:15:00 10.2 C 96 % 9.59 C
1205 01-09-2017 04:20:00 10.2 C 96 % 9.59 C
1206 01-09-2017 04:25:00 10.2 C 96 % 9.59 C
1207 01-09-2017 04:30:00 10.2 C 96 % 9.59 C
1208 01-09-2017 04:35:00 10.2 C 96 % 9.59 C
1209 01-09-2017 04:40:00 10.3 C 96 % 9.69 C
1210 01-09-2017 04:45:00 10.3 C 96 % 9.69 C
1211 01-09-2017 04:50:00 10.3 C 96 % 9.69 C
1212 01-09-2017 04:55:00 10.3 C 96 % 9.69 C
1213 01-09-2017 05:00:00 10.3 C 96 % 9.69 C
1214 01-09-2017 05:05:00 10.3 C 96 % 9.69 C
1215 01-09-2017 05:10:00 10.4 C 96 % 9.79 C
1216 01-09-2017 05:15:00 10.6 C 96 % 9.99 C
1217 01-09-2017 05:20:00 10.6 C 96 % 9.99 C
1218 01-09-2017 05:25:00 10.6 C 96 % 9.99 C
1219 01-09-2017 05:30:00 10.6 C 96 % 9.99 C
1220 01-09-2017 05:35:00 10.6 C 96 % 9.99 C
1221 01-09-2017 05:40:00 10.6 C 96 % 9.99 C
1222 01-09-2017 05:45:00 10.5 C 96 % 9.89 C
1223 01-09-2017 05:50:00 10.4 C 96 % 9.79 C
1224 01-09-2017 05:55:00 10.4 C 96 % 9.79 C
1225 01-09-2017 06:00:00 10.4 C 96 % 9.79 C
Sensor: Nr:Datum:Temp:Feuchte:Taupunkt:
Aussen-T/F 1226 01-09-2017 06:05:00 10.5 C 96 % 9.89 C
1227 01-09-2017 06:10:00 10.5 C 96 % 9.89 C
1228 01-09-2017 06:15:00 10.5 C 96 % 9.89 C
1229 01-09-2017 06:20:00 10.5 C 96 % 9.89 C
1230 01-09-2017 06:25:00 10.4 C 96 % 9.79 C
1231 01-09-2017 06:30:00 10.4 C 96 % 9.79 C
1232 01-09-2017 06:35:00 10.4 C 96 % 9.79 C
1233 01-09-2017 06:40:00 10.4 C 96 % 9.79 C
1234 01-09-2017 06:45:00 10.4 C 96 % 9.79 C
1235 01-09-2017 06:50:00 10.4 C 96 % 9.79 C
1236 01-09-2017 06:55:00 10.4 C 96 % 9.79 C
1237 01-09-2017 07:00:00 10.3 C 96 % 9.69 C
1238 01-09-2017 07:05:00 10.4 C 96 % 9.79 C
1239 01-09-2017 07:10:00 10.4 C 96 % 9.79 C
1240 01-09-2017 07:15:00 10.4 C 96 % 9.79 C
1241 01-09-2017 07:20:00 10.3 C 96 % 9.69 C
1242 01-09-2017 07:25:00 10.3 C 96 % 9.69 C
1243 01-09-2017 07:30:00 10.2 C 96 % 9.59 C
1244 01-09-2017 07:35:00 10.1 C 96 % 9.49 C
1245 01-09-2017 07:40:00 10.1 C 96 % 9.49 C
1246 01-09-2017 07:45:00 10.2 C 96 % 9.59 C
1247 01-09-2017 07:50:00 10.2 C 96 % 9.59 C
1248 01-09-2017 07:55:00 10.2 C 96 % 9.59 C
1249 01-09-2017 08:00:00 10.3 C 97 % 9.85 C
1250 01-09-2017 08:05:00 10.4 C 97 % 9.94 C
Sensor: Nr:Datum:Temp:Feuchte:Taupunkt:
Aussen-T/F 1251 01-09-2017 08:10:00 10.4 C 97 % 9.94 C
1252 01-09-2017 08:15:00 10.4 C 97 % 9.94 C
1253 01-09-2017 08:20:00 10.4 C 96 % 9.79 C
1254 01-09-2017 08:25:00 10.4 C 97 % 9.94 C
1255 01-09-2017 08:30:00 10.4 C 97 % 9.94 C
1256 01-09-2017 08:35:00 10.5 C 96 % 9.89 C
1257 01-09-2017 08:40:00 10.6 C 97 % 10.14 C
1258 01-09-2017 08:45:00 10.7 C 97 % 10.24 C
1259 01-09-2017 08:50:00 10.8 C 97 % 10.34 C
1260 01-09-2017 08:55:00 10.9 C 97 % 10.44 C
1261 01-09-2017 09:00:00 10.9 C 97 % 10.44 C
1262 01-09-2017 09:05:00 10.9 C 97 % 10.44 C
1263 01-09-2017 09:10:00 10.9 C 97 % 10.44 C
1264 01-09-2017 09:15:00 10.9 C 97 % 10.44 C
1265 01-09-2017 09:20:00 11 C 97 % 10.54 C
1266 01-09-2017 09:25:00 11.1 C 97 % 10.64 C
1267 01-09-2017 09:30:00 11.1 C 97 % 10.64 C
1268 01-09-2017 09:35:00 11.2 C 97 % 10.74 C
1269 01-09-2017 09:40:00 11.3 C 97 % 10.84 C
1270 01-09-2017 09:45:00 11.4 C 97 % 10.94 C
1271 01-09-2017 09:50:00 11.6 C 97 % 11.14 C
1272 01-09-2017 09:55:00 11.6 C 97 % 11.14 C
1273 01-09-2017 10:00:00 11.6 C 97 % 11.14 C
1274 01-09-2017 10:05:00 11.7 C 97 % 11.24 C
1275 01-09-2017 10:10:00 11.7 C 97 % 11.24 C
Sensor: Nr:Datum:Temp:Feuchte:Taupunkt:
Aussen-T/F 1276 01-09-2017 10:15:00 11.8 C 97 % 11.34 C
1277 01-09-2017 10:20:00 11.9 C 97 % 11.44 C
1278 01-09-2017 10:25:00 12 C 97 % 11.54 C
1279 01-09-2017 10:30:00 12.1 C 97 % 11.64 C
1280 01-09-2017 10:35:00 12.3 C 97 % 11.84 C
1281 01-09-2017 10:40:00 12.4 C 97 % 11.94 C
1282 01-09-2017 10:45:00 12.4 C 97 % 11.94 C
1283 01-09-2017 10:50:00 12.4 C 96 % 11.78 C
1284 01-09-2017 10:55:00 12.6 C 96 % 11.98 C
1285 01-09-2017 11:00:00 12.7 C 97 % 12.24 C
1286 01-09-2017 11:05:00 12.8 C 96 % 12.18 C
1287 01-09-2017 11:10:00 12.9 C 96 % 12.28 C
1288 01-09-2017 11:15:00 13 C 96 % 12.38 C
1289 01-09-2017 11:20:00 13.1 C 96 % 12.48 C
1290 01-09-2017 11:25:00 13.2 C 96 % 12.58 C
1291 01-09-2017 11:30:00 13.3 C 96 % 12.68 C
1292 01-09-2017 11:35:00 13.4 C 95 % 12.62 C
1293 01-09-2017 11:40:00 13.6 C 95 % 12.81 C
1294 01-09-2017 11:45:00 13.7 C 95 % 12.91 C
1295 01-09-2017 11:50:00 13.9 C 95 % 13.11 C
1296 01-09-2017 11:55:00 14.1 C 94 % 13.15 C
1297 01-09-2017 12:00:00 14.3 C 94 % 13.35 C
1298 01-09-2017 12:05:00 14.5 C 93 % 13.38 C
1299 01-09-2017 12:10:00 14.8 C 92 % 13.51 C
1300 01-09-2017 12:15:00 15 C 91 % 13.54 C
Sensor: Nr:Datum:Temp:Feuchte:Taupunkt:
Aussen-T/F 1301 01-09-2017 12:20:00 15.3 C 91 % 13.84 C
1302 01-09-2017 12:25:00 15.5 C 88 % 13.52 C
1303 01-09-2017 12:30:00 15.8 C 86 % 13.46 C
1304 01-09-2017 12:35:00 16.1 C 83 % 13.21 C
1305 01-09-2017 12:40:00 16.3 C 84 % 13.59 C
1306 01-09-2017 12:45:00 16.4 C 82 % 13.32 C
1307 01-09-2017 12:50:00 16.6 C 79 % 12.95 C
1308 01-09-2017 12:55:00 16.8 C 81 % 13.52 C
1309 01-09-2017 13:00:00 16.9 C 80 % 13.43 C
1310 01-09-2017 13:05:00 17.1 C 78 % 13.24 C
1311 01-09-2017 13:10:00 17.3 C 76 % 13.03 C
1312 01-09-2017 13:15:00 17.6 C 77 % 13.52 C
1313 01-09-2017 13:20:00 17.7 C 77 % 13.62 C
1314 01-09-2017 13:25:00 17.9 C 73 % 12.99 C
1315 01-09-2017 13:30:00 18.1 C 75 % 13.6 C
1316 01-09-2017 13:35:00 18.2 C 76 % 13.9 C
1317 01-09-2017 13:40:00 18.4 C 79 % 14.69 C
1318 01-09-2017 13:45:00 18.4 C 72 % 13.26 C
1319 01-09-2017 13:50:00 18.6 C 71 % 13.24 C
1320 01-09-2017 13:55:00 18.6 C 67 % 12.36 C
1321 01-09-2017 14:00:00 18.7 C 67 % 12.45 C
1322 01-09-2017 14:05:00 18.7 C 67 % 12.45 C
1323 01-09-2017 14:10:00 18.8 C 70 % 13.22 C
1324 01-09-2017 14:15:00 18.8 C 79 % 15.08 C
1325 01-09-2017 14:20:00 18.9 C 81 % 15.57 C
Sensor: Nr:Datum:Temp:Feuchte:Taupunkt:
Aussen-T/F 1326 01-09-2017 14:25:00 18.8 C 83 % 15.85 C
1327 01-09-2017 14:30:00 18.8 C 83 % 15.85 C
1328 01-09-2017 14:35:00 18.7 C 84 % 15.94 C
1329 01-09-2017 14:40:00 18.5 C 79 % 14.79 C
1330 01-09-2017 14:45:00 18.4 C 71 % 13.05 C
1331 01-09-2017 14:50:00 18.6 C 70 % 13.02 C
1332 01-09-2017 14:55:00 18.7 C 70 % 13.12 C
1333 01-09-2017 15:00:00 18.7 C 66 % 12.22 C
1334 01-09-2017 15:05:00 18.4 C 67 % 12.17 C
1335 01-09-2017 15:10:00 18.1 C 67 % 11.88 C
1336 01-09-2017 15:15:00 17.9 C 69 % 12.14 C
1337 01-09-2017 15:20:00 17.8 C 68 % 11.82 C
1338 01-09-2017 15:25:00 17.7 C 69 % 11.95 C
1339 01-09-2017 15:30:00 17.6 C 67 % 11.4 C
1340 01-09-2017 15:35:00 17.6 C 67 % 11.4 C
1341 01-09-2017 15:40:00 17.6 C 67 % 11.4 C
1342 01-09-2017 15:45:00 17.5 C 68 % 11.53 C
1343 01-09-2017 15:50:00 17.6 C 68 % 11.63 C
1344 01-09-2017 15:55:00 17.5 C 67 % 11.31 C
1345 01-09-2017 16:00:00 17.6 C 70 % 12.07 C
1346 01-09-2017 16:05:00 17.6 C 69 % 11.85 C
1347 01-09-2017 16:10:00 17.7 C 68 % 11.72 C
1348 01-09-2017 16:15:00 17.7 C 69 % 11.95 C
1349 01-09-2017 16:20:00 17.8 C 69 % 12.04 C
1350 01-09-2017 16:25:00 17.8 C 68 % 11.82 C
Sensor: Nr:Datum:Temp:Feuchte:Taupunkt:
Aussen-T/F 1351 01-09-2017 16:30:00 17.8 C 67 % 11.6 C
1352 01-09-2017 16:35:00 17.8 C 68 % 11.82 C
1353 01-09-2017 16:40:00 17.8 C 70 % 12.26 C
1354 01-09-2017 16:45:00 18.1 C 71 % 12.76 C
1355 01-09-2017 16:50:00 18.2 C 69 % 12.42 C
1356 01-09-2017 16:55:00 18.4 C 77 % 14.3 C
1357 01-09-2017 17:00:00 18.4 C 78 % 14.5 C
1358 01-09-2017 17:05:00 18.4 C 74 % 13.68 C
1359 01-09-2017 17:10:00 18.4 C 79 % 14.69 C
1360 01-09-2017 17:15:00 18.3 C 75 % 13.79 C
1361 01-09-2017 17:20:00 18.2 C 78 % 14.3 C
1362 01-09-2017 17:25:00 18.2 C 80 % 14.69 C
1363 01-09-2017 17:30:00 18.1 C 79 % 14.4 C
1364 01-09-2017 17:35:00 17.9 C 80 % 14.4 C
1365 01-09-2017 17:40:00 17.7 C 80 % 14.21 C
1366 01-09-2017 17:45:00 17.6 C 82 % 14.49 C
1367 01-09-2017 17:50:00 17.5 C 83 % 14.58 C
1368 01-09-2017 17:55:00 17.4 C 82 % 14.3 C
1369 01-09-2017 18:00:00 17.4 C 82 % 14.3 C
1370 01-09-2017 18:05:00 17.3 C 83 % 14.39 C
1371 01-09-2017 18:10:00 17.4 C 84 % 14.67 C
1372 01-09-2017 18:15:00 17.7 C 85 % 15.15 C
1373 01-09-2017 18:20:00 18.1 C 75 % 13.6 C
1374 01-09-2017 18:25:00 18.5 C 73 % 13.57 C
1375 01-09-2017 18:30:00 18.6 C 69 % 12.8 C
Sensor: Nr:Datum:Temp:Feuchte:Taupunkt:
Aussen-T/F 1376 01-09-2017 18:35:00 18.7 C 76 % 14.39 C
1377 01-09-2017 18:40:00 18.6 C 77 % 14.49 C
1378 01-09-2017 18:45:00 18.4 C 78 % 14.5 C
1379 01-09-2017 18:50:00 18.2 C 78 % 14.3 C
1380 01-09-2017 18:55:00 17.9 C 79 % 14.21 C
1381 01-09-2017 19:00:00 17.7 C 80 % 14.21 C
1382 01-09-2017 19:05:00 17.4 C 80 % 13.92 C
1383 01-09-2017 19:10:00 17.2 C 82 % 14.1 C
1384 01-09-2017 19:15:00 16.9 C 82 % 13.81 C
1385 01-09-2017 19:20:00 16.7 C 83 % 13.8 C
1386 01-09-2017 19:25:00 16.6 C 83 % 13.7 C
1387 01-09-2017 19:30:00 16.4 C 84 % 13.69 C
1388 01-09-2017 19:35:00 16.3 C 83 % 13.41 C
1389 01-09-2017 19:40:00 16.1 C 83 % 13.21 C
1390 01-09-2017 19:45:00 15.9 C 83 % 13.02 C
1391 01-09-2017 19:50:00 15.7 C 83 % 12.82 C
1392 01-09-2017 19:55:00 15.5 C 84 % 12.81 C
1393 01-09-2017 20:00:00 15.3 C 85 % 12.79 C
1394 01-09-2017 20:05:00 15.2 C 85 % 12.7 C
1395 01-09-2017 20:10:00 15 C 85 % 12.5 C
1396 01-09-2017 20:15:00 14.8 C 85 % 12.3 C
1397 01-09-2017 20:20:00 14.7 C 86 % 12.38 C
1398 01-09-2017 20:25:00 14.6 C 86 % 12.29 C
1399 01-09-2017 20:30:00 14.6 C 87 % 12.46 C
1400 01-09-2017 20:35:00 14.5 C 87 % 12.36 C
Sensor: Nr:Datum:Temp:Feuchte:Taupunkt:
Aussen-T/F 1401 01-09-2017 20:40:00 14.4 C 88 % 12.44 C
1402 01-09-2017 20:45:00 14.4 C 88 % 12.44 C
1403 01-09-2017 20:50:00 14.4 C 88 % 12.44 C
1404 01-09-2017 20:55:00 14.3 C 88 % 12.34 C
1405 01-09-2017 21:00:00 14.3 C 89 % 12.51 C
1406 01-09-2017 21:05:00 14.3 C 89 % 12.51 C
1407 01-09-2017 21:10:00 14.2 C 88 % 12.24 C
1408 01-09-2017 21:15:00 14.2 C 88 % 12.24 C
1409 01-09-2017 21:20:00 14.1 C 88 % 12.14 C
1410 01-09-2017 21:25:00 14.1 C 88 % 12.14 C
1411 01-09-2017 21:30:00 14.1 C 88 % 12.14 C
1412 01-09-2017 21:35:00 13.9 C 88 % 11.95 C
1413 01-09-2017 21:40:00 13.9 C 88 % 11.95 C
1414 01-09-2017 21:45:00 13.8 C 88 % 11.85 C
1415 01-09-2017 21:50:00 13.7 C 88 % 11.75 C
1416 01-09-2017 21:55:00 13.6 C 89 % 11.82 C
1417 01-09-2017 22:00:00 13.4 C 89 % 11.63 C
1418 01-09-2017 22:05:00 13.3 C 89 % 11.53 C
1419 01-09-2017 22:10:00 13.3 C 89 % 11.53 C
1420 01-09-2017 22:15:00 13.3 C 89 % 11.53 C
1421 01-09-2017 22:20:00 13.2 C 90 % 11.6 C
1422 01-09-2017 22:25:00 13.2 C 90 % 11.6 C
1423 01-09-2017 22:30:00 13.2 C 91 % 11.76 C
1424 01-09-2017 22:35:00 13.2 C 91 % 11.76 C
1425 01-09-2017 22:40:00 13.2 C 91 % 11.76 C
Sensor: Nr:Datum:Temp:Feuchte:Taupunkt:
Aussen-T/F 1426 01-09-2017 22:45:00 13.2 C 91 % 11.76 C
1427 01-09-2017 22:50:00 13.2 C 91 % 11.76 C
1428 01-09-2017 22:55:00 13.2 C 92 % 11.93 C
1429 01-09-2017 23:00:00 13.2 C 92 % 11.93 C
1430 01-09-2017 23:05:00 13.2 C 92 % 11.93 C
1431 01-09-2017 23:10:00 13.2 C 92 % 11.93 C
1432 01-09-2017 23:15:00 13.2 C 92 % 11.93 C
1433 01-09-2017 23:20:00 13.2 C 92 % 11.93 C
1434 01-09-2017 23:25:00 13.2 C 92 % 11.93 C
1435 01-09-2017 23:30:00 13.2 C 93 % 12.09 C
1436 01-09-2017 23:35:00 13.2 C 93 % 12.09 C
1437 01-09-2017 23:40:00 13.3 C 93 % 12.19 C
1438 01-09-2017 23:45:00 13.3 C 93 % 12.19 C
1439 01-09-2017 23:50:00 13.3 C 93 % 12.19 C
1440 01-09-2017 23:55:00 13.3 C 93 % 12.19 C
1441 02-09-2017 00:00:00 13.3 C 93 % 12.19 C
1442 02-09-2017 00:05:00 13.3 C 93 % 12.19 C
1443 02-09-2017 00:10:00 13.3 C 93 % 12.19 C
1444 02-09-2017 00:15:00 13.3 C 93 % 12.19 C
1445 02-09-2017 00:20:00 13.3 C 93 % 12.19 C
1446 02-09-2017 00:25:00 13.3 C 93 % 12.19 C
1447 02-09-2017 00:30:00 13.3 C 93 % 12.19 C
1448 02-09-2017 00:35:00 13.2 C 93 % 12.09 C
1449 02-09-2017 00:40:00 13.2 C 93 % 12.09 C
1450 02-09-2017 00:45:00 13.2 C 93 % 12.09 C
Sensor: Nr:Datum:Temp:Feuchte:Taupunkt:
Aussen-T/F 1451 02-09-2017 00:50:00 13.2 C 93 % 12.09 C
1452 02-09-2017 00:55:00 13.2 C 93 % 12.09 C
1453 02-09-2017 01:00:00 13.2 C 93 % 12.09 C
1454 02-09-2017 01:05:00 13.1 C 93 % 11.99 C
1455 02-09-2017 01:10:00 13.1 C 93 % 11.99 C
1456 02-09-2017 01:15:00 13.1 C 93 % 11.99 C
1457 02-09-2017 01:20:00 13.1 C 93 % 11.99 C
1458 02-09-2017 01:25:00 13.1 C 93 % 11.99 C
1459 02-09-2017 01:30:00 13.1 C 93 % 11.99 C
1460 02-09-2017 01:35:00 13 C 93 % 11.9 C
1461 02-09-2017 01:40:00 13 C 93 % 11.9 C
1462 02-09-2017 01:45:00 13 C 93 % 11.9 C
1463 02-09-2017 01:50:00 13 C 93 % 11.9 C
1464 02-09-2017 01:55:00 12.9 C 93 % 11.8 C
1465 02-09-2017 02:00:00 12.9 C 93 % 11.8 C
1466 02-09-2017 02:05:00 12.8 C 93 % 11.7 C
1467 02-09-2017 02:10:00 12.8 C 93 % 11.7 C
1468 02-09-2017 02:15:00 12.8 C 93 % 11.7 C
1469 02-09-2017 02:20:00 12.7 C 93 % 11.6 C
1470 02-09-2017 02:25:00 12.7 C 93 % 11.6 C
1471 02-09-2017 02:30:00 12.7 C 93 % 11.6 C
1472 02-09-2017 02:35:00 12.7 C 94 % 11.76 C
1473 02-09-2017 02:40:00 12.6 C 94 % 11.66 C
1474 02-09-2017 02:45:00 12.6 C 94 % 11.66 C
1475 02-09-2017 02:50:00 12.6 C 94 % 11.66 C
Sensor: Nr:Datum:Temp:Feuchte:Taupunkt:
Aussen-T/F 1476 02-09-2017 02:55:00 12.6 C 94 % 11.66 C
1477 02-09-2017 03:00:00 12.6 C 94 % 11.66 C
1478 02-09-2017 03:05:00 12.6 C 94 % 11.66 C
1479 02-09-2017 03:10:00 12.6 C 94 % 11.66 C
1480 02-09-2017 03:15:00 12.6 C 94 % 11.66 C
1481 02-09-2017 03:20:00 12.6 C 94 % 11.66 C
1482 02-09-2017 03:25:00 12.7 C 94 % 11.76 C
1483 02-09-2017 03:30:00 12.7 C 94 % 11.76 C
1484 02-09-2017 03:35:00 12.7 C 94 % 11.76 C
1485 02-09-2017 03:40:00 12.7 C 94 % 11.76 C
1486 02-09-2017 03:45:00 12.7 C 94 % 11.76 C
1487 02-09-2017 03:50:00 12.6 C 94 % 11.66 C
1488 02-09-2017 03:55:00 12.6 C 94 % 11.66 C
1489 02-09-2017 04:00:00 12.6 C 94 % 11.66 C
1490 02-09-2017 04:05:00 12.5 C 94 % 11.56 C
1491 02-09-2017 04:10:00 12.5 C 94 % 11.56 C
1492 02-09-2017 04:15:00 12.4 C 94 % 11.46 C
1493 02-09-2017 04:20:00 12.4 C 94 % 11.46 C
1494 02-09-2017 04:25:00 12.4 C 94 % 11.46 C
1495 02-09-2017 04:30:00 12.3 C 94 % 11.36 C
1496 02-09-2017 04:35:00 12.3 C 94 % 11.36 C
1497 02-09-2017 04:40:00 12.4 C 95 % 11.62 C
1498 02-09-2017 04:45:00 12.4 C 95 % 11.62 C
1499 02-09-2017 04:50:00 12.4 C 95 % 11.62 C
1500 02-09-2017 04:55:00 12.4 C 95 % 11.62 C
Sensor: Nr:Datum:Temp:Feuchte:Taupunkt:
Aussen-T/F 1501 02-09-2017 05:00:00 12.4 C 95 % 11.62 C
1502 02-09-2017 05:05:00 12.4 C 95 % 11.62 C
1503 02-09-2017 05:10:00 12.4 C 95 % 11.62 C
1504 02-09-2017 05:15:00 12.4 C 95 % 11.62 C
1505 02-09-2017 05:20:00 12.4 C 95 % 11.62 C
1506 02-09-2017 05:25:00 12.4 C 95 % 11.62 C
1507 02-09-2017 05:30:00 12.4 C 95 % 11.62 C
1508 02-09-2017 05:35:00 12.4 C 95 % 11.62 C
1509 02-09-2017 05:40:00 12.3 C 95 % 11.52 C
1510 02-09-2017 05:45:00 12.3 C 95 % 11.52 C
1511 02-09-2017 05:50:00 12.3 C 95 % 11.52 C
1512 02-09-2017 05:55:00 12.2 C 95 % 11.42 C
1513 02-09-2017 06:00:00 12.2 C 95 % 11.42 C
1514 02-09-2017 06:05:00 12.1 C 95 % 11.32 C
1515 02-09-2017 06:10:00 12.1 C 95 % 11.32 C
1516 02-09-2017 06:15:00 12.1 C 95 % 11.32 C
1517 02-09-2017 06:20:00 12.1 C 95 % 11.32 C
1518 02-09-2017 06:25:00 12.1 C 95 % 11.32 C
1519 02-09-2017 06:30:00 12.1 C 95 % 11.32 C
1520 02-09-2017 06:35:00 12.1 C 95 % 11.32 C
1521 02-09-2017 06:40:00 12.2 C 95 % 11.42 C
1522 02-09-2017 06:45:00 12.2 C 95 % 11.42 C
1523 02-09-2017 06:50:00 12.3 C 96 % 11.68 C
1524 02-09-2017 06:55:00 12.3 C 96 % 11.68 C
1525 02-09-2017 07:00:00 12.3 C 96 % 11.68 C
Sensor: Nr:Datum:Temp:Feuchte:Taupunkt:
Aussen-T/F 1526 02-09-2017 07:05:00 12.3 C 96 % 11.68 C
1527 02-09-2017 07:10:00 12.3 C 95 % 11.52 C
1528 02-09-2017 07:15:00 12.3 C 96 % 11.68 C
1529 02-09-2017 07:20:00 12.4 C 96 % 11.78 C
1530 02-09-2017 07:25:00 12.4 C 96 % 11.78 C
1531 02-09-2017 07:30:00 12.4 C 96 % 11.78 C
1532 02-09-2017 07:35:00 12.5 C 96 % 11.88 C
1533 02-09-2017 07:40:00 12.5 C 96 % 11.88 C
1534 02-09-2017 07:45:00 12.6 C 96 % 11.98 C
1535 02-09-2017 07:50:00 12.6 C 96 % 11.98 C
1536 02-09-2017 07:55:00 12.6 C 96 % 11.98 C
1537 02-09-2017 08:00:00 12.6 C 96 % 11.98 C
1538 02-09-2017 08:05:00 12.7 C 96 % 12.08 C
1539 02-09-2017 08:10:00 12.7 C 96 % 12.08 C
1540 02-09-2017 08:15:00 12.7 C 96 % 12.08 C
1541 02-09-2017 08:20:00 12.7 C 96 % 12.08 C
1542 02-09-2017 08:25:00 12.8 C 96 % 12.18 C
1543 02-09-2017 08:30:00 12.8 C 96 % 12.18 C
1544 02-09-2017 08:35:00 12.8 C 96 % 12.18 C
1545 02-09-2017 08:40:00 12.8 C 96 % 12.18 C
1546 02-09-2017 08:45:00 12.8 C 96 % 12.18 C
1547 02-09-2017 08:50:00 12.8 C 96 % 12.18 C
1548 02-09-2017 08:55:00 12.8 C 96 % 12.18 C
1549 02-09-2017 09:00:00 12.8 C 96 % 12.18 C
1550 02-09-2017 09:05:00 12.9 C 96 % 12.28 C
Sensor: Nr:Datum:Temp:Feuchte:Taupunkt:
Aussen-T/F 1551 02-09-2017 09:10:00 12.9 C 96 % 12.28 C
1552 02-09-2017 09:15:00 13 C 96 % 12.38 C
1553 02-09-2017 09:20:00 13.1 C 96 % 12.48 C
1554 02-09-2017 09:25:00 13.2 C 96 % 12.58 C
1555 02-09-2017 09:30:00 13.2 C 96 % 12.58 C
1556 02-09-2017 09:35:00 13.3 C 96 % 12.68 C
1557 02-09-2017 09:40:00 13.4 C 96 % 12.78 C
1558 02-09-2017 09:45:00 13.4 C 96 % 12.78 C
1559 02-09-2017 09:50:00 13.6 C 96 % 12.97 C
1560 02-09-2017 09:55:00 13.7 C 96 % 13.07 C
1561 02-09-2017 10:00:00 13.8 C 96 % 13.17 C
1562 02-09-2017 10:05:00 13.8 C 96 % 13.17 C
1563 02-09-2017 10:10:00 13.8 C 95 % 13.01 C
1564 02-09-2017 10:15:00 13.8 C 95 % 13.01 C
1565 02-09-2017 10:20:00 13.9 C 95 % 13.11 C
1566 02-09-2017 10:25:00 14 C 95 % 13.21 C
1567 02-09-2017 10:30:00 14.2 C 94 % 13.25 C
1568 02-09-2017 10:35:00 14.3 C 93 % 13.18 C
1569 02-09-2017 10:40:00 14.4 C 93 % 13.28 C
1570 02-09-2017 10:45:00 14.4 C 91 % 12.95 C
1571 02-09-2017 10:50:00 14.5 C 90 % 12.88 C
1572 02-09-2017 10:55:00 14.6 C 89 % 12.81 C
1573 02-09-2017 11:00:00 14.7 C 90 % 13.08 C
1574 02-09-2017 11:05:00 14.8 C 89 % 13.01 C
1575 02-09-2017 11:10:00 15 C 89 % 13.2 C
Sensor: Nr:Datum:Temp:Feuchte:Taupunkt:
Aussen-T/F 1576 02-09-2017 11:15:00 15.2 C 88 % 13.23 C
1577 02-09-2017 11:20:00 15.3 C 86 % 12.97 C
1578 02-09-2017 11:25:00 15.4 C 85 % 12.89 C
1579 02-09-2017 11:30:00 15.6 C 87 % 13.45 C
1580 02-09-2017 11:35:00 15.8 C 86 % 13.46 C
1581 02-09-2017 11:40:00 15.9 C 85 % 13.38 C
1582 02-09-2017 11:45:00 16.1 C 86 % 13.76 C
1583 02-09-2017 11:50:00 16.2 C 84 % 13.5 C
1584 02-09-2017 11:55:00 16.3 C 84 % 13.59 C
1585 02-09-2017 12:00:00 16.4 C 82 % 13.32 C
1586 02-09-2017 12:05:00 16.5 C 82 % 13.42 C
1587 02-09-2017 12:10:00 16.6 C 80 % 13.14 C
1588 02-09-2017 12:15:00 16.6 C 80 % 13.14 C
1589 02-09-2017 12:20:00 16.5 C 80 % 13.04 C
1590 02-09-2017 12:25:00 16.4 C 80 % 12.94 C
1591 02-09-2017 12:30:00 16.5 C 79 % 12.85 C
1592 02-09-2017 12:35:00 16.5 C 79 % 12.85 C
1593 02-09-2017 12:40:00 16.6 C 79 % 12.95 C
1594 02-09-2017 12:45:00 16.7 C 79 % 13.04 C
1595 02-09-2017 12:50:00 16.7 C 79 % 13.04 C
1596 02-09-2017 12:55:00 16.7 C 79 % 13.04 C
1597 02-09-2017 13:00:00 16.7 C 77 % 12.65 C
1598 02-09-2017 13:05:00 16.8 C 77 % 12.75 C
1599 02-09-2017 13:10:00 16.9 C 77 % 12.84 C
1600 02-09-2017 13:15:00 17 C 75 % 12.54 C
Sensor: Nr:Datum:Temp:Feuchte:Taupunkt:
Aussen-T/F 1601 02-09-2017 13:20:00 17.2 C 78 % 13.33 C
1602 02-09-2017 13:25:00 17.5 C 74 % 12.82 C
1603 02-09-2017 13:30:00 17.6 C 72 % 12.5 C
1604 02-09-2017 13:35:00 17.6 C 72 % 12.5 C
1605 02-09-2017 13:40:00 17.6 C 73 % 12.71 C
1606 02-09-2017 13:45:00 17.6 C 73 % 12.71 C
1607 02-09-2017 13:50:00 17.7 C 74 % 13.01 C
1608 02-09-2017 13:55:00 17.8 C 73 % 12.9 C
1609 02-09-2017 14:00:00 18.1 C 70 % 12.55 C
1610 02-09-2017 14:05:00 18.2 C 71 % 12.86 C
1611 02-09-2017 14:10:00 18.1 C 68 % 12.11 C
1612 02-09-2017 14:15:00 18.1 C 73 % 13.19 C
1613 02-09-2017 14:20:00 17.9 C 74 % 13.2 C
1614 02-09-2017 14:25:00 17.8 C 77 % 13.72 C
1615 02-09-2017 14:30:00 17.6 C 77 % 13.52 C
1616 02-09-2017 14:35:00 17.4 C 74 % 12.72 C
1617 02-09-2017 14:40:00 17.3 C 75 % 12.83 C
1618 02-09-2017 14:45:00 17.4 C 76 % 13.13 C
1619 02-09-2017 14:50:00 17.6 C 76 % 13.32 C
1620 02-09-2017 14:55:00 17.6 C 75 % 13.12 C
1621 02-09-2017 15:00:00 17.4 C 75 % 12.93 C
1622 02-09-2017 15:05:00 17.3 C 76 % 13.03 C
1623 02-09-2017 15:10:00 17.3 C 75 % 12.83 C
1624 02-09-2017 15:15:00 17.6 C 71 % 12.28 C
1625 02-09-2017 15:20:00 17.7 C 67 % 11.5 C
Sensor: Nr:Datum:Temp:Feuchte:Taupunkt:
Aussen-T/F 1626 02-09-2017 15:25:00 17.8 C 70 % 12.26 C
1627 02-09-2017 15:30:00 17.8 C 68 % 11.82 C
1628 02-09-2017 15:35:00 17.9 C 69 % 12.14 C
1629 02-09-2017 15:40:00 17.9 C 71 % 12.57 C
1630 02-09-2017 15:45:00 17.7 C 71 % 12.38 C
1631 02-09-2017 15:50:00 17.6 C 71 % 12.28 C
1632 02-09-2017 15:55:00 17.4 C 72 % 12.3 C
1633 02-09-2017 16:00:00 17.3 C 71 % 12 C
1634 02-09-2017 16:05:00 17.2 C 74 % 12.53 C
1635 02-09-2017 16:10:00 16.9 C 79 % 13.24 C
1636 02-09-2017 16:15:00 16.4 C 80 % 12.94 C
1637 02-09-2017 16:20:00 16.3 C 81 % 13.04 C
1638 02-09-2017 16:25:00 16.2 C 84 % 13.5 C
1639 02-09-2017 16:30:00 16.2 C 84 % 13.5 C
1640 02-09-2017 16:35:00 16.1 C 86 % 13.76 C
1641 02-09-2017 16:40:00 16.1 C 87 % 13.94 C
1642 02-09-2017 16:45:00 16 C 87 % 13.84 C
1643 02-09-2017 16:50:00 15.9 C 88 % 13.92 C
1644 02-09-2017 16:55:00 15.7 C 86 % 13.37 C
1645 02-09-2017 17:00:00 15.6 C 88 % 13.62 C
1646 02-09-2017 17:05:00 15.6 C 88 % 13.62 C
1647 02-09-2017 17:10:00 15.4 C 88 % 13.42 C
1648 02-09-2017 17:15:00 15.3 C 88 % 13.33 C
1649 02-09-2017 17:20:00 15.2 C 88 % 13.23 C
1650 02-09-2017 17:25:00 15.1 C 89 % 13.3 C
Sensor: Nr:Datum:Temp:Feuchte:Taupunkt:
Aussen-T/F 1651 02-09-2017 17:30:00 15 C 89 % 13.2 C
1652 02-09-2017 17:35:00 14.9 C 89 % 13.1 C
1653 02-09-2017 17:40:00 14.8 C 90 % 13.18 C
1654 02-09-2017 17:45:00 14.8 C 91 % 13.35 C
1655 02-09-2017 17:50:00 15 C 92 % 13.71 C
1656 02-09-2017 17:55:00 15.3 C 92 % 14.01 C
1657 02-09-2017 18:00:00 15.4 C 91 % 13.94 C
1658 02-09-2017 18:05:00 15.7 C 91 % 14.24 C
1659 02-09-2017 18:10:00 15.8 C 89 % 13.99 C
1660 02-09-2017 18:15:00 15.9 C 87 % 13.74 C
1661 02-09-2017 18:20:00 16.1 C 87 % 13.94 C
1662 02-09-2017 18:25:00 16.4 C 89 % 14.58 C
1663 02-09-2017 18:30:00 16.7 C 86 % 14.35 C
1664 02-09-2017 18:35:00 16.9 C 86 % 14.54 C
1665 02-09-2017 18:40:00 17 C 85 % 14.46 C
1666 02-09-2017 18:45:00 16.9 C 85 % 14.36 C
1667 02-09-2017 18:50:00 16.9 C 87 % 14.72 C
1668 02-09-2017 18:55:00 16.8 C 87 % 14.62 C
1669 02-09-2017 19:00:00 16.7 C 88 % 14.7 C
1670 02-09-2017 19:05:00 16.6 C 88 % 14.6 C
1671 02-09-2017 19:10:00 16.3 C 88 % 14.31 C
1672 02-09-2017 19:15:00 16.2 C 88 % 14.21 C
1673 02-09-2017 19:20:00 16 C 89 % 14.19 C
1674 02-09-2017 19:25:00 15.8 C 89 % 13.99 C
1675 02-09-2017 19:30:00 15.6 C 89 % 13.79 C
Sensor: Nr:Datum:Temp:Feuchte:Taupunkt:
Aussen-T/F 1676 02-09-2017 19:35:00 15.4 C 89 % 13.6 C
1677 02-09-2017 19:40:00 15.2 C 89 % 13.4 C
1678 02-09-2017 19:45:00 15 C 89 % 13.2 C
1679 02-09-2017 19:50:00 14.9 C 90 % 13.28 C
1680 02-09-2017 19:55:00 14.7 C 91 % 13.25 C
1681 02-09-2017 20:00:00 14.6 C 91 % 13.15 C
1682 02-09-2017 20:05:00 14.4 C 91 % 12.95 C
1683 02-09-2017 20:10:00 14.3 C 91 % 12.85 C
1684 02-09-2017 20:15:00 14.2 C 91 % 12.75 C
1685 02-09-2017 20:20:00 14.1 C 91 % 12.65 C
1686 02-09-2017 20:25:00 14.1 C 91 % 12.65 C
1687 02-09-2017 20:30:00 13.9 C 92 % 12.62 C
1688 02-09-2017 20:35:00 13.9 C 92 % 12.62 C
1689 02-09-2017 20:40:00 13.8 C 92 % 12.52 C
1690 02-09-2017 20:45:00 13.8 C 92 % 12.52 C
1691 02-09-2017 20:50:00 13.8 C 92 % 12.52 C
1692 02-09-2017 20:55:00 13.7 C 93 % 12.59 C
1693 02-09-2017 21:00:00 13.7 C 93 % 12.59 C
1694 02-09-2017 21:05:00 13.7 C 93 % 12.59 C
1695 02-09-2017 21:10:00 13.6 C 93 % 12.49 C
1696 02-09-2017 21:15:00 13.6 C 93 % 12.49 C
1697 02-09-2017 21:20:00 13.5 C 93 % 12.39 C
1698 02-09-2017 21:25:00 13.4 C 93 % 12.29 C
1699 02-09-2017 21:30:00 13.4 C 93 % 12.29 C
1700 02-09-2017 21:35:00 13.4 C 93 % 12.29 C
Sensor: Nr:Datum:Temp:Feuchte:Taupunkt:
Aussen-T/F 1701 02-09-2017 21:40:00 13.3 C 93 % 12.19 C
1702 02-09-2017 21:45:00 13.3 C 93 % 12.19 C
1703 02-09-2017 21:50:00 13.2 C 94 % 12.26 C
1704 02-09-2017 21:55:00 13.2 C 94 % 12.26 C
1705 02-09-2017 22:00:00 13.1 C 94 % 12.16 C
1706 02-09-2017 22:05:00 13.1 C 94 % 12.16 C
1707 02-09-2017 22:10:00 13.1 C 94 % 12.16 C
1708 02-09-2017 22:15:00 13 C 94 % 12.06 C
1709 02-09-2017 22:20:00 13 C 94 % 12.06 C
1710 02-09-2017 22:25:00 13 C 94 % 12.06 C
1711 02-09-2017 22:30:00 13 C 94 % 12.06 C
1712 02-09-2017 22:35:00 12.9 C 94 % 11.96 C
1713 02-09-2017 22:40:00 12.9 C 94 % 11.96 C
1714 02-09-2017 22:45:00 12.9 C 94 % 11.96 C
1715 02-09-2017 22:50:00 12.8 C 94 % 11.86 C
1716 02-09-2017 22:55:00 12.8 C 94 % 11.86 C
1717 02-09-2017 23:00:00 12.7 C 94 % 11.76 C
1718 02-09-2017 23:05:00 12.7 C 94 % 11.76 C
1719 02-09-2017 23:10:00 12.6 C 94 % 11.66 C
1720 02-09-2017 23:15:00 12.6 C 94 % 11.66 C
1721 02-09-2017 23:20:00 12.5 C 94 % 11.56 C
1722 02-09-2017 23:25:00 12.4 C 94 % 11.46 C
1723 02-09-2017 23:30:00 12.3 C 94 % 11.36 C
1724 02-09-2017 23:35:00 12.2 C 94 % 11.26 C
1725 02-09-2017 23:40:00 12.1 C 94 % 11.16 C
Sensor: Nr:Datum:Temp:Feuchte:Taupunkt:
Aussen-T/F 1726 02-09-2017 23:45:00 12.1 C 94 % 11.16 C
1727 02-09-2017 23:50:00 11.9 C 94 % 10.97 C
1728 02-09-2017 23:55:00 11.9 C 94 % 10.97 C
1729 03-09-2017 00:00:00 11.8 C 94 % 10.87 C
1730 03-09-2017 00:05:00 11.7 C 94 % 10.77 C
1731 03-09-2017 00:10:00 11.7 C 94 % 10.77 C
1732 03-09-2017 00:15:00 11.6 C 94 % 10.67 C
1733 03-09-2017 00:20:00 11.6 C 94 % 10.67 C
1734 03-09-2017 00:25:00 11.6 C 94 % 10.67 C
1735 03-09-2017 00:30:00 11.5 C 94 % 10.57 C
1736 03-09-2017 00:35:00 11.4 C 94 % 10.47 C
1737 03-09-2017 00:40:00 11.4 C 94 % 10.47 C
1738 03-09-2017 00:45:00 11.3 C 94 % 10.37 C
1739 03-09-2017 00:50:00 11.3 C 94 % 10.37 C
1740 03-09-2017 00:55:00 11.2 C 94 % 10.27 C
1741 03-09-2017 01:00:00 11.2 C 94 % 10.27 C
1742 03-09-2017 01:05:00 11.1 C 94 % 10.17 C
1743 03-09-2017 01:10:00 11.1 C 95 % 10.33 C
1744 03-09-2017 01:15:00 11 C 94 % 10.07 C
1745 03-09-2017 01:20:00 10.9 C 94 % 9.97 C
1746 03-09-2017 01:25:00 10.9 C 95 % 10.13 C
1747 03-09-2017 01:30:00 10.9 C 95 % 10.13 C
1748 03-09-2017 01:35:00 10.8 C 95 % 10.03 C
1749 03-09-2017 01:40:00 10.8 C 95 % 10.03 C
1750 03-09-2017 01:45:00 10.7 C 95 % 9.93 C
Sensor: Nr:Datum:Temp:Feuchte:Taupunkt:
Aussen-T/F 1751 03-09-2017 01:50:00 10.6 C 94 % 9.68 C
1752 03-09-2017 01:55:00 10.6 C 95 % 9.83 C
1753 03-09-2017 02:00:00 10.4 C 95 % 9.63 C
1754 03-09-2017 02:05:00 10.4 C 95 % 9.63 C
1755 03-09-2017 02:10:00 10.4 C 95 % 9.63 C
1756 03-09-2017 02:15:00 10.5 C 95 % 9.73 C
1757 03-09-2017 02:20:00 10.6 C 96 % 9.99 C
1758 03-09-2017 02:25:00 10.7 C 96 % 10.09 C
1759 03-09-2017 02:30:00 10.7 C 95 % 9.93 C
1760 03-09-2017 02:35:00 10.6 C 95 % 9.83 C
1761 03-09-2017 02:40:00 10.6 C 95 % 9.83 C
1762 03-09-2017 02:45:00 10.4 C 95 % 9.63 C
1763 03-09-2017 02:50:00 10.3 C 95 % 9.54 C
1764 03-09-2017 02:55:00 10.3 C 95 % 9.54 C
1765 03-09-2017 03:00:00 10.2 C 95 % 9.44 C
1766 03-09-2017 03:05:00 10.2 C 95 % 9.44 C
1767 03-09-2017 03:10:00 10.1 C 95 % 9.34 C
1768 03-09-2017 03:15:00 10 C 95 % 9.24 C
1769 03-09-2017 03:20:00 9.9 C 95 % 9.14 C
1770 03-09-2017 03:25:00 9.9 C 95 % 9.14 C
1771 03-09-2017 03:30:00 9.9 C 95 % 9.14 C
1772 03-09-2017 03:35:00 9.8 C 95 % 9.04 C
1773 03-09-2017 03:40:00 9.8 C 95 % 9.04 C
1774 03-09-2017 03:45:00 9.8 C 95 % 9.04 C
1775 03-09-2017 03:50:00 9.7 C 96 % 9.09 C
Sensor: Nr:Datum:Temp:Feuchte:Taupunkt:
Aussen-T/F 1776 03-09-2017 03:55:00 9.7 C 95 % 8.94 C
1777 03-09-2017 04:00:00 9.7 C 96 % 9.09 C
1778 03-09-2017 04:05:00 9.8 C 96 % 9.19 C
1779 03-09-2017 04:10:00 9.8 C 96 % 9.19 C
1780 03-09-2017 04:15:00 9.7 C 96 % 9.09 C
1781 03-09-2017 04:20:00 9.8 C 96 % 9.19 C
1782 03-09-2017 04:25:00 9.9 C 96 % 9.29 C
1783 03-09-2017 04:30:00 10 C 96 % 9.39 C
1784 03-09-2017 04:35:00 10.1 C 96 % 9.49 C
1785 03-09-2017 04:40:00 10.2 C 96 % 9.59 C
1786 03-09-2017 04:45:00 10.2 C 96 % 9.59 C
1787 03-09-2017 04:50:00 10.3 C 96 % 9.69 C
1788 03-09-2017 04:55:00 10.4 C 96 % 9.79 C
1789 03-09-2017 05:00:00 10.4 C 96 % 9.79 C
1790 03-09-2017 05:05:00 10.3 C 96 % 9.69 C
1791 03-09-2017 05:10:00 10.3 C 96 % 9.69 C
1792 03-09-2017 05:15:00 10.3 C 96 % 9.69 C
1793 03-09-2017 05:20:00 10.3 C 96 % 9.69 C
1794 03-09-2017 05:25:00 10.3 C 96 % 9.69 C
1795 03-09-2017 05:30:00 10.3 C 96 % 9.69 C
1796 03-09-2017 05:35:00 10.4 C 96 % 9.79 C
1797 03-09-2017 05:40:00 10.3 C 96 % 9.69 C
1798 03-09-2017 05:45:00 10.3 C 96 % 9.69 C
1799 03-09-2017 05:50:00 10.3 C 96 % 9.69 C
1800 03-09-2017 05:55:00 10.3 C 96 % 9.69 C
Sensor: Nr:Datum:Temp:Feuchte:Taupunkt:
Aussen-T/F 1801 03-09-2017 06:00:00 10.3 C 96 % 9.69 C
1802 03-09-2017 06:05:00 10.2 C 96 % 9.59 C
1803 03-09-2017 06:10:00 10.2 C 96 % 9.59 C
1804 03-09-2017 06:15:00 10.1 C 96 % 9.49 C
1805 03-09-2017 06:20:00 10.1 C 96 % 9.49 C
1806 03-09-2017 06:25:00 9.9 C 96 % 9.29 C
1807 03-09-2017 06:30:00 9.9 C 96 % 9.29 C
1808 03-09-2017 06:35:00 9.8 C 96 % 9.19 C
1809 03-09-2017 06:40:00 9.8 C 96 % 9.19 C
1810 03-09-2017 06:45:00 9.8 C 96 % 9.19 C
1811 03-09-2017 06:50:00 9.9 C 96 % 9.29 C
1812 03-09-2017 06:55:00 9.9 C 96 % 9.29 C
1813 03-09-2017 07:00:00 10 C 96 % 9.39 C
1814 03-09-2017 07:05:00 10 C 96 % 9.39 C
1815 03-09-2017 07:10:00 10 C 96 % 9.39 C
1816 03-09-2017 07:15:00 9.9 C 96 % 9.29 C
1817 03-09-2017 07:20:00 9.9 C 96 % 9.29 C
1818 03-09-2017 07:25:00 9.9 C 96 % 9.29 C
1819 03-09-2017 07:30:00 9.9 C 96 % 9.29 C
1820 03-09-2017 07:35:00 9.9 C 96 % 9.29 C
1821 03-09-2017 07:40:00 9.9 C 96 % 9.29 C
1822 03-09-2017 07:45:00 9.9 C 96 % 9.29 C
1823 03-09-2017 07:50:00 9.9 C 96 % 9.29 C
1824 03-09-2017 07:55:00 9.9 C 96 % 9.29 C
1825 03-09-2017 08:00:00 9.9 C 96 % 9.29 C
Sensor: Nr:Datum:Temp:Feuchte:Taupunkt:
Aussen-T/F 1826 03-09-2017 08:05:00 9.9 C 96 % 9.29 C
1827 03-09-2017 08:10:00 9.9 C 96 % 9.29 C
1828 03-09-2017 08:15:00 9.9 C 96 % 9.29 C
1829 03-09-2017 08:20:00 9.9 C 96 % 9.29 C
1830 03-09-2017 08:25:00 9.9 C 96 % 9.29 C
1831 03-09-2017 08:30:00 10 C 96 % 9.39 C
1832 03-09-2017 08:35:00 10.1 C 96 % 9.49 C
1833 03-09-2017 08:40:00 10.1 C 96 % 9.49 C
1834 03-09-2017 08:45:00 10.1 C 96 % 9.49 C
1835 03-09-2017 08:50:00 10.1 C 96 % 9.49 C
1836 03-09-2017 08:55:00 10.1 C 96 % 9.49 C
1837 03-09-2017 09:00:00 10.1 C 96 % 9.49 C
1838 03-09-2017 09:05:00 10.1 C 96 % 9.49 C
1839 03-09-2017 09:10:00 10.1 C 96 % 9.49 C
1840 03-09-2017 09:15:00 10.1 C 96 % 9.49 C
1841 03-09-2017 09:20:00 10.1 C 96 % 9.49 C
1842 03-09-2017 09:25:00 10.2 C 96 % 9.59 C
1843 03-09-2017 09:30:00 10.3 C 96 % 9.69 C
1844 03-09-2017 09:35:00 10.4 C 96 % 9.79 C
1845 03-09-2017 09:40:00 10.4 C 96 % 9.79 C
1846 03-09-2017 09:45:00 10.4 C 96 % 9.79 C
1847 03-09-2017 09:50:00 10.6 C 96 % 9.99 C
1848 03-09-2017 09:55:00 10.7 C 96 % 10.09 C
1849 03-09-2017 10:00:00 10.7 C 96 % 10.09 C
1850 03-09-2017 10:05:00 10.8 C 96 % 10.19 C
Sensor: Nr:Datum:Temp:Feuchte:Taupunkt:
Aussen-T/F 1851 03-09-2017 10:10:00 10.8 C 96 % 10.19 C
1852 03-09-2017 10:15:00 10.9 C 96 % 10.29 C
1853 03-09-2017 10:20:00 11 C 96 % 10.39 C
1854 03-09-2017 10:25:00 11.1 C 96 % 10.49 C
1855 03-09-2017 10:30:00 11.2 C 96 % 10.59 C
1856 03-09-2017 10:35:00 11.3 C 95 % 10.53 C
1857 03-09-2017 10:40:00 11.4 C 95 % 10.63 C
1858 03-09-2017 10:45:00 11.6 C 95 % 10.83 C
1859 03-09-2017 10:50:00 11.7 C 95 % 10.93 C
1860 03-09-2017 10:55:00 11.8 C 95 % 11.03 C
1861 03-09-2017 11:00:00 11.9 C 94 % 10.97 C
1862 03-09-2017 11:05:00 12.1 C 94 % 11.16 C
1863 03-09-2017 11:10:00 12.2 C 94 % 11.26 C
1864 03-09-2017 11:15:00 12.3 C 94 % 11.36 C
1865 03-09-2017 11:20:00 12.4 C 93 % 11.3 C
1866 03-09-2017 11:25:00 12.6 C 93 % 11.5 C
1867 03-09-2017 11:30:00 12.8 C 93 % 11.7 C
1868 03-09-2017 11:35:00 13 C 93 % 11.9 C
1869 03-09-2017 11:40:00 13.2 C 93 % 12.09 C
1870 03-09-2017 11:45:00 13.3 C 92 % 12.03 C
1871 03-09-2017 11:50:00 13.3 C 92 % 12.03 C
1872 03-09-2017 11:55:00 13.4 C 91 % 11.96 C
1873 03-09-2017 12:00:00 13.3 C 91 % 11.86 C
1874 03-09-2017 12:05:00 13.3 C 91 % 11.86 C
1875 03-09-2017 12:10:00 13.3 C 91 % 11.86 C
Sensor: Nr:Datum:Temp:Feuchte:Taupunkt:
Aussen-T/F 1876 03-09-2017 12:15:00 13.4 C 91 % 11.96 C
1877 03-09-2017 12:20:00 13.5 C 91 % 12.06 C
1878 03-09-2017 12:25:00 13.6 C 91 % 12.16 C
1879 03-09-2017 12:30:00 13.7 C 90 % 12.09 C
1880 03-09-2017 12:35:00 13.9 C 90 % 12.29 C
1881 03-09-2017 12:40:00 14 C 90 % 12.39 C
1882 03-09-2017 12:45:00 14.2 C 90 % 12.58 C
1883 03-09-2017 12:50:00 14.3 C 89 % 12.51 C
1884 03-09-2017 12:55:00 14.4 C 89 % 12.61 C
1885 03-09-2017 13:00:00 14.4 C 89 % 12.61 C
1886 03-09-2017 13:05:00 14.6 C 88 % 12.64 C
1887 03-09-2017 13:10:00 14.7 C 88 % 12.73 C
1888 03-09-2017 13:15:00 14.8 C 88 % 12.83 C
1889 03-09-2017 13:20:00 14.9 C 87 % 12.76 C
1890 03-09-2017 13:25:00 15.1 C 86 % 12.78 C
1891 03-09-2017 13:30:00 15.3 C 85 % 12.79 C
1892 03-09-2017 13:35:00 15.4 C 84 % 12.71 C
1893 03-09-2017 13:40:00 15.6 C 83 % 12.72 C
1894 03-09-2017 13:45:00 15.8 C 82 % 12.74 C
1895 03-09-2017 13:50:00 15.9 C 81 % 12.65 C
1896 03-09-2017 13:55:00 16.2 C 79 % 12.56 C
1897 03-09-2017 14:00:00 16.3 C 78 % 12.46 C
1898 03-09-2017 14:05:00 16.4 C 77 % 12.36 C
1899 03-09-2017 14:10:00 16.5 C 76 % 12.26 C
1900 03-09-2017 14:15:00 16.6 C 74 % 11.95 C
Sensor: Nr:Datum:Temp:Feuchte:Taupunkt:
Aussen-T/F 1901 03-09-2017 14:20:00 16.8 C 75 % 12.35 C
1902 03-09-2017 14:25:00 16.9 C 72 % 11.82 C
1903 03-09-2017 14:30:00 17.1 C 70 % 11.59 C
1904 03-09-2017 14:35:00 17.2 C 70 % 11.68 C
1905 03-09-2017 14:40:00 17.3 C 74 % 12.62 C
1906 03-09-2017 14:45:00 17.3 C 77 % 13.23 C
1907 03-09-2017 14:50:00 17.3 C 79 % 13.63 C
1908 03-09-2017 14:55:00 17.3 C 79 % 13.63 C
1909 03-09-2017 15:00:00 17.2 C 81 % 13.91 C
1910 03-09-2017 15:05:00 17 C 71 % 11.71 C
1911 03-09-2017 15:10:00 17.1 C 78 % 13.24 C
1912 03-09-2017 15:15:00 17.1 C 69 % 11.37 C
1913 03-09-2017 15:20:00 17.3 C 72 % 12.21 C
1914 03-09-2017 15:25:00 17.5 C 70 % 11.97 C
1915 03-09-2017 15:30:00 17.7 C 73 % 12.8 C
1916 03-09-2017 15:35:00 17.8 C 73 % 12.9 C
1917 03-09-2017 15:40:00 17.9 C 69 % 12.14 C
1918 03-09-2017 15:45:00 18.1 C 70 % 12.55 C
1919 03-09-2017 15:50:00 18.3 C 68 % 12.3 C
1920 03-09-2017 15:55:00 18.4 C 66 % 11.94 C
1921 03-09-2017 16:00:00 18.6 C 67 % 12.36 C
1922 03-09-2017 16:05:00 18.7 C 64 % 11.76 C
1923 03-09-2017 16:10:00 18.8 C 63 % 11.61 C
1924 03-09-2017 16:15:00 19.1 C 67 % 12.83 C
1925 03-09-2017 16:20:00 19.4 C 66 % 12.89 C
Sensor: Nr:Datum:Temp:Feuchte:Taupunkt:
Aussen-T/F 1926 03-09-2017 16:25:00 19.7 C 64 % 12.7 C
1927 03-09-2017 16:30:00 20 C 63 % 12.75 C
1928 03-09-2017 16:35:00 20.3 C 70 % 14.65 C
1929 03-09-2017 16:40:00 20.6 C 70 % 14.94 C
1930 03-09-2017 16:45:00 20.9 C 70 % 15.23 C
1931 03-09-2017 16:50:00 21.2 C 65 % 14.36 C
1932 03-09-2017 16:55:00 21.4 C 58 % 12.8 C
1933 03-09-2017 17:00:00 21.4 C 63 % 14.07 C
1934 03-09-2017 17:05:00 21.4 C 58 % 12.8 C
1935 03-09-2017 17:10:00 21.3 C 64 % 14.22 C
1936 03-09-2017 17:15:00 21.4 C 61 % 13.57 C
1937 03-09-2017 17:20:00 21.7 C 67 % 15.31 C
1938 03-09-2017 17:25:00 21.7 C 59 % 13.34 C
1939 03-09-2017 17:30:00 21.7 C 65 % 14.84 C
1940 03-09-2017 17:35:00 21.7 C 63 % 14.35 C
1941 03-09-2017 17:40:00 21.7 C 66 % 15.07 C
1942 03-09-2017 17:45:00 21.5 C 64 % 14.41 C
1943 03-09-2017 17:50:00 21 C 68 % 14.87 C
1944 03-09-2017 17:55:00 20.4 C 68 % 14.3 C
1945 03-09-2017 18:00:00 19.8 C 71 % 14.39 C
1946 03-09-2017 18:05:00 19.3 C 73 % 14.34 C
1947 03-09-2017 18:10:00 19 C 76 % 14.68 C
1948 03-09-2017 18:15:00 18.8 C 77 % 14.68 C
1949 03-09-2017 18:20:00 18.6 C 76 % 14.29 C
1950 03-09-2017 18:25:00 18.2 C 76 % 13.9 C
Sensor: Nr:Datum:Temp:Feuchte:Taupunkt:
Aussen-T/F 1951 03-09-2017 18:30:00 17.8 C 77 % 13.72 C
1952 03-09-2017 18:35:00 17.4 C 78 % 13.53 C
1953 03-09-2017 18:40:00 17.1 C 79 % 13.43 C
1954 03-09-2017 18:45:00 16.8 C 80 % 13.33 C
1955 03-09-2017 18:50:00 16.6 C 81 % 13.33 C
1956 03-09-2017 18:55:00 16.4 C 82 % 13.32 C
1957 03-09-2017 19:00:00 16.3 C 83 % 13.41 C
1958 03-09-2017 19:05:00 16.1 C 83 % 13.21 C
1959 03-09-2017 19:10:00 15.9 C 84 % 13.2 C
1960 03-09-2017 19:15:00 15.8 C 85 % 13.28 C
1961 03-09-2017 19:20:00 15.7 C 85 % 13.19 C
1962 03-09-2017 19:25:00 15.5 C 85 % 12.99 C
1963 03-09-2017 19:30:00 15.4 C 85 % 12.89 C
1964 03-09-2017 19:35:00 15.2 C 84 % 12.52 C
1965 03-09-2017 19:40:00 15.1 C 83 % 12.24 C
1966 03-09-2017 19:45:00 15 C 81 % 11.77 C
1967 03-09-2017 19:50:00 15 C 81 % 11.77 C
1968 03-09-2017 19:55:00 15.1 C 81 % 11.87 C
1969 03-09-2017 20:00:00 15.2 C 84 % 12.52 C
1970 03-09-2017 20:05:00 15.1 C 84 % 12.42 C
1971 03-09-2017 20:10:00 15.1 C 84 % 12.42 C
1972 03-09-2017 20:15:00 15 C 85 % 12.5 C
1973 03-09-2017 20:20:00 14.8 C 84 % 12.12 C
1974 03-09-2017 20:25:00 14.7 C 84 % 12.03 C
1975 03-09-2017 20:30:00 14.6 C 84 % 11.93 C
Sensor: Nr:Datum:Temp:Feuchte:Taupunkt:
Aussen-T/F 1976 03-09-2017 20:35:00 14.4 C 85 % 11.91 C
1977 03-09-2017 20:40:00 14.3 C 85 % 11.81 C
1978 03-09-2017 20:45:00 14.2 C 85 % 11.72 C
1979 03-09-2017 20:50:00 14.2 C 86 % 11.89 C
1980 03-09-2017 20:55:00 14.1 C 86 % 11.8 C
1981 03-09-2017 21:00:00 14 C 86 % 11.7 C
1982 03-09-2017 21:05:00 13.8 C 86 % 11.5 C
1983 03-09-2017 21:10:00 13.7 C 86 % 11.4 C
1984 03-09-2017 21:15:00 13.7 C 87 % 11.58 C
1985 03-09-2017 21:20:00 13.6 C 86 % 11.3 C
1986 03-09-2017 21:25:00 13.4 C 87 % 11.28 C
1987 03-09-2017 21:30:00 13.4 C 87 % 11.28 C
1988 03-09-2017 21:35:00 13.3 C 87 % 11.18 C
1989 03-09-2017 21:40:00 13.2 C 87 % 11.09 C
1990 03-09-2017 21:45:00 13.1 C 87 % 10.99 C
1991 03-09-2017 21:50:00 13.1 C 88 % 11.16 C
1992 03-09-2017 21:55:00 12.9 C 88 % 10.96 C
1993 03-09-2017 22:00:00 12.8 C 88 % 10.86 C
1994 03-09-2017 22:05:00 12.7 C 88 % 10.77 C
1995 03-09-2017 22:10:00 12.6 C 88 % 10.67 C
1996 03-09-2017 22:15:00 12.4 C 88 % 10.47 C
1997 03-09-2017 22:20:00 12.3 C 88 % 10.37 C
1998 03-09-2017 22:25:00 12.2 C 88 % 10.27 C
1999 03-09-2017 22:30:00 12.1 C 88 % 10.17 C
2000 03-09-2017 22:35:00 12.1 C 89 % 10.34 C
Sensor: Nr:Datum:Temp:Feuchte:Taupunkt:
Aussen-T/F 2001 03-09-2017 22:40:00 12 C 89 % 10.25 C
2002 03-09-2017 22:45:00 11.9 C 89 % 10.15 C
2003 03-09-2017 22:50:00 11.9 C 90 % 10.31 C
2004 03-09-2017 22:55:00 11.8 C 90 % 10.21 C
2005 03-09-2017 23:00:00 11.8 C 90 % 10.21 C
2006 03-09-2017 23:05:00 11.8 C 90 % 10.21 C
2007 03-09-2017 23:10:00 11.7 C 91 % 10.28 C
2008 03-09-2017 23:15:00 11.7 C 91 % 10.28 C
2009 03-09-2017 23:20:00 11.7 C 91 % 10.28 C
2010 03-09-2017 23:25:00 11.6 C 91 % 10.18 C
2011 03-09-2017 23:30:00 11.5 C 91 % 10.08 C
2012 03-09-2017 23:35:00 11.4 C 91 % 9.98 C
2013 03-09-2017 23:40:00 11.3 C 91 % 9.89 C
2014 03-09-2017 23:45:00 11.3 C 92 % 10.05 C
2015 03-09-2017 23:50:00 11.3 C 92 % 10.05 C
2016 03-09-2017 23:55:00 11.3 C 92 % 10.05 C

Legende:
   Min
   Max


Maximal/Minimal-Werte vom 28.08.2017 - 03.09.2017

Sensor Min Max Avg
Temp
(Aussen-T/F)
9.7 °C
03-09-2017  03:50:00
29.1 °C
29-08-2017  17:00:00
16.9 °C
Feuchte
(Aussen-T/F)
56 %
29-08-2017  16:45:00
97 %
29-08-2017  07:50:00
87.71 %
Taupunkt
(Aussen-T/F)
8.94 C
03-09-2017  03:55:00
23.01 C
30-08-2017  15:40:00
14.72 C

Die Daten stammen von einer Davis Vantage Pro 2 Wetter-Station und werden unter Linux mit der Software wview2wettercgi und aufbereitet. Alle Angaben erfolgen ohne Gewähr für ihre Vollständigkeit oder Richtigkeit.
Kontakt: Rainer Krienke krienke@uni-koblenz.de . Meine Webseiten an der Uni Koblenz oder privat.
Version: $Revision: 0.78 $